<?xml version="1.0" encoding="UTF-8" standalone="no" ?>
<gpx xmlns="http://www.topografix.com/GPX/1/1" xmlns:xsi="http://www.w3.org/2001/XMLSchema-instance" xsi:schemaLocation="http://www.topografix.com/GPX/1/1 http://www.topografix.com/GPX/1/1/gpx.xsd" version="1.1" creator="VisuGPX - https://www.visugpx.com">
  <metadata>
    <name>Sortie 29-12-2014 VTT matin</name>
    <desc><![CDATA[Sortie 29-12-2014 VTT matin]]></desc>
  </metadata>
  <trk>
    <name><![CDATA[2014-12-29 12:28:51]]></name>
    <trkseg>
      <trkpt lat="50.38798" lon="4.32728">
        <ele>155.54</ele>
        <time>2014-12-29T07:47:32Z</time>
      </trkpt>
      <trkpt lat="50.38796" lon="4.3273">
        <ele>149.45</ele>
        <time>2014-12-29T07:47:34Z</time>
      </trkpt>
      <trkpt lat="50.38772" lon="4.32745">
        <ele>148.59</ele>
        <time>2014-12-29T07:47:52Z</time>
      </trkpt>
      <trkpt lat="50.38763" lon="4.3275">
        <ele>147.91</ele>
        <time>2014-12-29T07:48:01Z</time>
      </trkpt>
      <trkpt lat="50.38758" lon="4.32756">
        <ele>147.77</ele>
        <time>2014-12-29T07:48:19Z</time>
      </trkpt>
      <trkpt lat="50.38727" lon="4.32783">
        <ele>146.29</ele>
        <time>2014-12-29T07:48:31Z</time>
      </trkpt>
      <trkpt lat="50.38717" lon="4.32793">
        <ele>145.71</ele>
        <time>2014-12-29T07:48:34Z</time>
      </trkpt>
      <trkpt lat="50.38714" lon="4.32796">
        <ele>145.54</ele>
        <time>2014-12-29T07:48:35Z</time>
      </trkpt>
      <trkpt lat="50.38709" lon="4.32798">
        <ele>145.36</ele>
        <time>2014-12-29T07:48:36Z</time>
      </trkpt>
      <trkpt lat="50.38705" lon="4.328">
        <ele>145.17</ele>
        <time>2014-12-29T07:48:37Z</time>
      </trkpt>
      <trkpt lat="50.387" lon="4.32801">
        <ele>144.98</ele>
        <time>2014-12-29T07:48:38Z</time>
      </trkpt>
      <trkpt lat="50.38696" lon="4.32802">
        <ele>144.79</ele>
        <time>2014-12-29T07:48:39Z</time>
      </trkpt>
      <trkpt lat="50.38691" lon="4.32802">
        <ele>144.56</ele>
        <time>2014-12-29T07:48:40Z</time>
      </trkpt>
      <trkpt lat="50.38686" lon="4.32802">
        <ele>144.32</ele>
        <time>2014-12-29T07:48:41Z</time>
      </trkpt>
      <trkpt lat="50.38637" lon="4.32788">
        <ele>142.36</ele>
        <time>2014-12-29T07:48:54Z</time>
      </trkpt>
      <trkpt lat="50.38611" lon="4.32774">
        <ele>143.03</ele>
        <time>2014-12-29T07:49:06Z</time>
      </trkpt>
      <trkpt lat="50.38603" lon="4.32769">
        <ele>143.5</ele>
        <time>2014-12-29T07:49:17Z</time>
      </trkpt>
      <trkpt lat="50.3859" lon="4.32755">
        <ele>143.64</ele>
        <time>2014-12-29T07:49:26Z</time>
      </trkpt>
      <trkpt lat="50.38589" lon="4.32754">
        <ele>143.64</ele>
        <time>2014-12-29T07:49:27Z</time>
      </trkpt>
      <trkpt lat="50.38587" lon="4.32753">
        <ele>143.67</ele>
        <time>2014-12-29T07:49:28Z</time>
      </trkpt>
      <trkpt lat="50.38585" lon="4.32752">
        <ele>143.74</ele>
        <time>2014-12-29T07:49:29Z</time>
      </trkpt>
      <trkpt lat="50.38555" lon="4.32737">
        <ele>145.79</ele>
        <time>2014-12-29T07:49:45Z</time>
      </trkpt>
      <trkpt lat="50.38531" lon="4.32721">
        <ele>148.23</ele>
        <time>2014-12-29T07:49:59Z</time>
      </trkpt>
      <trkpt lat="50.38511" lon="4.3271">
        <ele>150.19</ele>
        <time>2014-12-29T07:50:12Z</time>
      </trkpt>
      <trkpt lat="50.38475" lon="4.32686">
        <ele>152.97</ele>
        <time>2014-12-29T07:50:28Z</time>
      </trkpt>
      <trkpt lat="50.38444" lon="4.32667">
        <ele>156.03</ele>
        <time>2014-12-29T07:50:42Z</time>
      </trkpt>
      <trkpt lat="50.38414" lon="4.32648">
        <ele>159.05</ele>
        <time>2014-12-29T07:50:56Z</time>
      </trkpt>
      <trkpt lat="50.38376" lon="4.32624">
        <ele>162.14</ele>
        <time>2014-12-29T07:51:13Z</time>
      </trkpt>
      <trkpt lat="50.38347" lon="4.32605">
        <ele>165.31</ele>
        <time>2014-12-29T07:51:27Z</time>
      </trkpt>
      <trkpt lat="50.38318" lon="4.32587">
        <ele>168.48</ele>
        <time>2014-12-29T07:51:40Z</time>
      </trkpt>
      <trkpt lat="50.38288" lon="4.32567">
        <ele>171.67</ele>
        <time>2014-12-29T07:51:54Z</time>
      </trkpt>
      <trkpt lat="50.38258" lon="4.32546">
        <ele>174.77</ele>
        <time>2014-12-29T07:52:09Z</time>
      </trkpt>
      <trkpt lat="50.38224" lon="4.32519">
        <ele>177.78</ele>
        <time>2014-12-29T07:52:25Z</time>
      </trkpt>
      <trkpt lat="50.38184" lon="4.32484">
        <ele>180.41</ele>
        <time>2014-12-29T07:52:42Z</time>
      </trkpt>
      <trkpt lat="50.3814" lon="4.32446">
        <ele>182.76</ele>
        <time>2014-12-29T07:52:59Z</time>
      </trkpt>
      <trkpt lat="50.38095" lon="4.32406">
        <ele>184.61</ele>
        <time>2014-12-29T07:53:16Z</time>
      </trkpt>
      <trkpt lat="50.38047" lon="4.32363">
        <ele>185.85</ele>
        <time>2014-12-29T07:53:33Z</time>
      </trkpt>
      <trkpt lat="50.38001" lon="4.32323">
        <ele>186.63</ele>
        <time>2014-12-29T07:53:49Z</time>
      </trkpt>
      <trkpt lat="50.37946" lon="4.32267">
        <ele>186.12</ele>
        <time>2014-12-29T07:54:07Z</time>
      </trkpt>
      <trkpt lat="50.37885" lon="4.32208">
        <ele>185.27</ele>
        <time>2014-12-29T07:54:25Z</time>
      </trkpt>
      <trkpt lat="50.37832" lon="4.32157">
        <ele>183.18</ele>
        <time>2014-12-29T07:54:40Z</time>
      </trkpt>
      <trkpt lat="50.37774" lon="4.32103">
        <ele>180.32</ele>
        <time>2014-12-29T07:54:57Z</time>
      </trkpt>
      <trkpt lat="50.37747" lon="4.32086">
        <ele>178.54</ele>
        <time>2014-12-29T07:55:06Z</time>
      </trkpt>
      <trkpt lat="50.37727" lon="4.32074">
        <ele>175.89</ele>
        <time>2014-12-29T07:55:17Z</time>
      </trkpt>
      <trkpt lat="50.37725" lon="4.32073">
        <ele>175.33</ele>
        <time>2014-12-29T07:55:20Z</time>
      </trkpt>
      <trkpt lat="50.3771" lon="4.3206">
        <ele>174.05</ele>
        <time>2014-12-29T07:55:45Z</time>
      </trkpt>
      <trkpt lat="50.37699" lon="4.32033">
        <ele>173.23</ele>
        <time>2014-12-29T07:55:57Z</time>
      </trkpt>
      <trkpt lat="50.37689" lon="4.32">
        <ele>172.36</ele>
        <time>2014-12-29T07:56:08Z</time>
      </trkpt>
      <trkpt lat="50.37688" lon="4.31994">
        <ele>172.27</ele>
        <time>2014-12-29T07:56:22Z</time>
      </trkpt>
      <trkpt lat="50.37684" lon="4.31988">
        <ele>172.07</ele>
        <time>2014-12-29T08:02:46Z</time>
      </trkpt>
      <trkpt lat="50.37682" lon="4.3198">
        <ele>172.21</ele>
        <time>2014-12-29T08:02:49Z</time>
      </trkpt>
      <trkpt lat="50.37667" lon="4.31922">
        <ele>172.99</ele>
        <time>2014-12-29T08:03:01Z</time>
      </trkpt>
      <trkpt lat="50.37652" lon="4.31851">
        <ele>172.92</ele>
        <time>2014-12-29T08:03:13Z</time>
      </trkpt>
      <trkpt lat="50.37632" lon="4.31767">
        <ele>172.68</ele>
        <time>2014-12-29T08:03:25Z</time>
      </trkpt>
      <trkpt lat="50.37622" lon="4.31748">
        <ele>172.33</ele>
        <time>2014-12-29T08:03:29Z</time>
      </trkpt>
      <trkpt lat="50.37569" lon="4.31744">
        <ele>170.73</ele>
        <time>2014-12-29T08:03:44Z</time>
      </trkpt>
      <trkpt lat="50.37549" lon="4.31744">
        <ele>167.67</ele>
        <time>2014-12-29T08:03:53Z</time>
      </trkpt>
      <trkpt lat="50.37541" lon="4.31737">
        <ele>166.9</ele>
        <time>2014-12-29T08:03:57Z</time>
      </trkpt>
      <trkpt lat="50.37537" lon="4.31727">
        <ele>166.94</ele>
        <time>2014-12-29T08:04:02Z</time>
      </trkpt>
      <trkpt lat="50.3753" lon="4.31692">
        <ele>168.34</ele>
        <time>2014-12-29T08:04:15Z</time>
      </trkpt>
      <trkpt lat="50.37515" lon="4.3165">
        <ele>169.9</ele>
        <time>2014-12-29T08:04:26Z</time>
      </trkpt>
      <trkpt lat="50.37503" lon="4.31628">
        <ele>169.84</ele>
        <time>2014-12-29T08:04:34Z</time>
      </trkpt>
      <trkpt lat="50.375" lon="4.31617">
        <ele>169.86</ele>
        <time>2014-12-29T08:04:38Z</time>
      </trkpt>
      <trkpt lat="50.37482" lon="4.31582">
        <ele>169.23</ele>
        <time>2014-12-29T08:04:49Z</time>
      </trkpt>
      <trkpt lat="50.37465" lon="4.31539">
        <ele>167.88</ele>
        <time>2014-12-29T08:04:59Z</time>
      </trkpt>
      <trkpt lat="50.37463" lon="4.31533">
        <ele>167.75</ele>
        <time>2014-12-29T08:05:01Z</time>
      </trkpt>
      <trkpt lat="50.37453" lon="4.31492">
        <ele>167.58</ele>
        <time>2014-12-29T08:05:15Z</time>
      </trkpt>
      <trkpt lat="50.3745" lon="4.31486">
        <ele>167.59</ele>
        <time>2014-12-29T08:05:24Z</time>
      </trkpt>
      <trkpt lat="50.3745" lon="4.31494">
        <ele>167.35</ele>
        <time>2014-12-29T08:06:16Z</time>
      </trkpt>
      <trkpt lat="50.37452" lon="4.31498">
        <ele>167.3</ele>
        <time>2014-12-29T08:06:17Z</time>
      </trkpt>
      <trkpt lat="50.37474" lon="4.31557">
        <ele>167.42</ele>
        <time>2014-12-29T08:06:32Z</time>
      </trkpt>
      <trkpt lat="50.3749" lon="4.31586">
        <ele>169.01</ele>
        <time>2014-12-29T08:06:43Z</time>
      </trkpt>
      <trkpt lat="50.3749" lon="4.31587">
        <ele>169.51</ele>
        <time>2014-12-29T08:06:46Z</time>
      </trkpt>
      <trkpt lat="50.37485" lon="4.31588">
        <ele>169.25</ele>
        <time>2014-12-29T08:07:39Z</time>
      </trkpt>
      <trkpt lat="50.3747" lon="4.31541">
        <ele>167.44</ele>
        <time>2014-12-29T08:07:51Z</time>
      </trkpt>
      <trkpt lat="50.37457" lon="4.31492">
        <ele>167.31</ele>
        <time>2014-12-29T08:08:02Z</time>
      </trkpt>
      <trkpt lat="50.37437" lon="4.3143">
        <ele>166.09</ele>
        <time>2014-12-29T08:08:13Z</time>
      </trkpt>
      <trkpt lat="50.37422" lon="4.3136">
        <ele>168.25</ele>
        <time>2014-12-29T08:08:25Z</time>
      </trkpt>
      <trkpt lat="50.37406" lon="4.31284">
        <ele>171.26</ele>
        <time>2014-12-29T08:08:38Z</time>
      </trkpt>
      <trkpt lat="50.37408" lon="4.31235">
        <ele>173.04</ele>
        <time>2014-12-29T08:08:47Z</time>
      </trkpt>
      <trkpt lat="50.37392" lon="4.3118">
        <ele>174.18</ele>
        <time>2014-12-29T08:08:57Z</time>
      </trkpt>
      <trkpt lat="50.37385" lon="4.31144">
        <ele>175.41</ele>
        <time>2014-12-29T08:09:06Z</time>
      </trkpt>
      <trkpt lat="50.37383" lon="4.31135">
        <ele>175.98</ele>
        <time>2014-12-29T08:09:15Z</time>
      </trkpt>
      <trkpt lat="50.37385" lon="4.31115">
        <ele>176.23</ele>
        <time>2014-12-29T08:10:16Z</time>
      </trkpt>
      <trkpt lat="50.37374" lon="4.31079">
        <ele>176.65</ele>
        <time>2014-12-29T08:10:30Z</time>
      </trkpt>
      <trkpt lat="50.37369" lon="4.31024">
        <ele>177.4</ele>
        <time>2014-12-29T08:10:43Z</time>
      </trkpt>
      <trkpt lat="50.37364" lon="4.30969">
        <ele>178.51</ele>
        <time>2014-12-29T08:10:55Z</time>
      </trkpt>
      <trkpt lat="50.37358" lon="4.30902">
        <ele>180.51</ele>
        <time>2014-12-29T08:11:10Z</time>
      </trkpt>
      <trkpt lat="50.3735" lon="4.30856">
        <ele>180.37</ele>
        <time>2014-12-29T08:11:20Z</time>
      </trkpt>
      <trkpt lat="50.37341" lon="4.30807">
        <ele>180.14</ele>
        <time>2014-12-29T08:11:30Z</time>
      </trkpt>
      <trkpt lat="50.37344" lon="4.30735">
        <ele>180.81</ele>
        <time>2014-12-29T08:11:44Z</time>
      </trkpt>
      <trkpt lat="50.37352" lon="4.30654">
        <ele>181.33</ele>
        <time>2014-12-29T08:11:57Z</time>
      </trkpt>
      <trkpt lat="50.37355" lon="4.30585">
        <ele>182.05</ele>
        <time>2014-12-29T08:12:08Z</time>
      </trkpt>
      <trkpt lat="50.37349" lon="4.30512">
        <ele>183.8</ele>
        <time>2014-12-29T08:12:21Z</time>
      </trkpt>
      <trkpt lat="50.37342" lon="4.30464">
        <ele>184.06</ele>
        <time>2014-12-29T08:12:31Z</time>
      </trkpt>
      <trkpt lat="50.37321" lon="4.30451">
        <ele>184.19</ele>
        <time>2014-12-29T08:12:37Z</time>
      </trkpt>
      <trkpt lat="50.37301" lon="4.30431">
        <ele>183.84</ele>
        <time>2014-12-29T08:12:43Z</time>
      </trkpt>
      <trkpt lat="50.37291" lon="4.30415">
        <ele>183.18</ele>
        <time>2014-12-29T08:12:54Z</time>
      </trkpt>
      <trkpt lat="50.3729" lon="4.3039">
        <ele>182.76</ele>
        <time>2014-12-29T08:14:00Z</time>
      </trkpt>
      <trkpt lat="50.373" lon="4.30371">
        <ele>183.32</ele>
        <time>2014-12-29T08:14:09Z</time>
      </trkpt>
      <trkpt lat="50.37291" lon="4.30347">
        <ele>183.87</ele>
        <time>2014-12-29T08:14:18Z</time>
      </trkpt>
      <trkpt lat="50.37284" lon="4.30336">
        <ele>183.93</ele>
        <time>2014-12-29T08:14:22Z</time>
      </trkpt>
      <trkpt lat="50.37264" lon="4.30283">
        <ele>182.95</ele>
        <time>2014-12-29T08:14:34Z</time>
      </trkpt>
      <trkpt lat="50.37249" lon="4.30231">
        <ele>182.77</ele>
        <time>2014-12-29T08:14:45Z</time>
      </trkpt>
      <trkpt lat="50.37255" lon="4.30216">
        <ele>182.8</ele>
        <time>2014-12-29T08:14:49Z</time>
      </trkpt>
      <trkpt lat="50.37285" lon="4.30195">
        <ele>183.47</ele>
        <time>2014-12-29T08:15:02Z</time>
      </trkpt>
      <trkpt lat="50.37328" lon="4.30193">
        <ele>185.07</ele>
        <time>2014-12-29T08:15:16Z</time>
      </trkpt>
      <trkpt lat="50.37365" lon="4.30188">
        <ele>186.29</ele>
        <time>2014-12-29T08:15:28Z</time>
      </trkpt>
      <trkpt lat="50.37411" lon="4.30188">
        <ele>187.15</ele>
        <time>2014-12-29T08:15:42Z</time>
      </trkpt>
      <trkpt lat="50.37454" lon="4.30187">
        <ele>186.94</ele>
        <time>2014-12-29T08:15:54Z</time>
      </trkpt>
      <trkpt lat="50.37495" lon="4.30182">
        <ele>186.93</ele>
        <time>2014-12-29T08:16:06Z</time>
      </trkpt>
      <trkpt lat="50.37539" lon="4.30176">
        <ele>187.32</ele>
        <time>2014-12-29T08:16:19Z</time>
      </trkpt>
      <trkpt lat="50.37578" lon="4.30169">
        <ele>187.26</ele>
        <time>2014-12-29T08:16:32Z</time>
      </trkpt>
      <trkpt lat="50.37612" lon="4.30143">
        <ele>187.74</ele>
        <time>2014-12-29T08:16:43Z</time>
      </trkpt>
      <trkpt lat="50.37654" lon="4.3011">
        <ele>188.1</ele>
        <time>2014-12-29T08:16:56Z</time>
      </trkpt>
      <trkpt lat="50.37658" lon="4.30107">
        <ele>188.16</ele>
        <time>2014-12-29T08:16:57Z</time>
      </trkpt>
      <trkpt lat="50.37667" lon="4.30112">
        <ele>188.41</ele>
        <time>2014-12-29T08:17:02Z</time>
      </trkpt>
      <trkpt lat="50.37681" lon="4.3017">
        <ele>188.47</ele>
        <time>2014-12-29T08:17:16Z</time>
      </trkpt>
      <trkpt lat="50.37689" lon="4.30222">
        <ele>188.17</ele>
        <time>2014-12-29T08:17:28Z</time>
      </trkpt>
      <trkpt lat="50.37699" lon="4.30289">
        <ele>188.47</ele>
        <time>2014-12-29T08:17:42Z</time>
      </trkpt>
      <trkpt lat="50.37707" lon="4.30348">
        <ele>188.3</ele>
        <time>2014-12-29T08:17:54Z</time>
      </trkpt>
      <trkpt lat="50.3772" lon="4.3043">
        <ele>187.84</ele>
        <time>2014-12-29T08:18:08Z</time>
      </trkpt>
      <trkpt lat="50.37728" lon="4.30484">
        <ele>186.9</ele>
        <time>2014-12-29T08:18:16Z</time>
      </trkpt>
      <trkpt lat="50.37729" lon="4.30499">
        <ele>186.45</ele>
        <time>2014-12-29T08:18:18Z</time>
      </trkpt>
      <trkpt lat="50.37731" lon="4.30515">
        <ele>185.82</ele>
        <time>2014-12-29T08:18:20Z</time>
      </trkpt>
      <trkpt lat="50.37737" lon="4.3055">
        <ele>184.42</ele>
        <time>2014-12-29T08:18:25Z</time>
      </trkpt>
      <trkpt lat="50.37756" lon="4.30672">
        <ele>181.45</ele>
        <time>2014-12-29T08:18:38Z</time>
      </trkpt>
      <trkpt lat="50.3776" lon="4.30707">
        <ele>181.08</ele>
        <time>2014-12-29T08:18:42Z</time>
      </trkpt>
      <trkpt lat="50.37775" lon="4.30809">
        <ele>179.87</ele>
        <time>2014-12-29T08:18:55Z</time>
      </trkpt>
      <trkpt lat="50.37777" lon="4.30825">
        <ele>179.8</ele>
        <time>2014-12-29T08:18:57Z</time>
      </trkpt>
      <trkpt lat="50.37792" lon="4.30926">
        <ele>180.12</ele>
        <time>2014-12-29T08:19:11Z</time>
      </trkpt>
      <trkpt lat="50.37795" lon="4.30954">
        <ele>180.35</ele>
        <time>2014-12-29T08:19:15Z</time>
      </trkpt>
      <trkpt lat="50.37801" lon="4.30983">
        <ele>180.48</ele>
        <time>2014-12-29T08:19:19Z</time>
      </trkpt>
      <trkpt lat="50.37803" lon="4.31012">
        <ele>180.63</ele>
        <time>2014-12-29T08:19:23Z</time>
      </trkpt>
      <trkpt lat="50.37814" lon="4.31101">
        <ele>181.21</ele>
        <time>2014-12-29T08:19:36Z</time>
      </trkpt>
      <trkpt lat="50.37816" lon="4.31138">
        <ele>181.78</ele>
        <time>2014-12-29T08:19:46Z</time>
      </trkpt>
      <trkpt lat="50.37818" lon="4.31145">
        <ele>181.93</ele>
        <time>2014-12-29T08:19:49Z</time>
      </trkpt>
      <trkpt lat="50.37829" lon="4.31155">
        <ele>182.13</ele>
        <time>2014-12-29T08:19:54Z</time>
      </trkpt>
      <trkpt lat="50.37877" lon="4.31167">
        <ele>180.77</ele>
        <time>2014-12-29T08:20:08Z</time>
      </trkpt>
      <trkpt lat="50.37886" lon="4.3117">
        <ele>180.25</ele>
        <time>2014-12-29T08:20:10Z</time>
      </trkpt>
      <trkpt lat="50.37894" lon="4.31174">
        <ele>179.89</ele>
        <time>2014-12-29T08:20:12Z</time>
      </trkpt>
      <trkpt lat="50.37914" lon="4.31202">
        <ele>179.28</ele>
        <time>2014-12-29T08:20:19Z</time>
      </trkpt>
      <trkpt lat="50.37948" lon="4.31269">
        <ele>178.85</ele>
        <time>2014-12-29T08:20:32Z</time>
      </trkpt>
      <trkpt lat="50.37966" lon="4.31303">
        <ele>178.98</ele>
        <time>2014-12-29T08:20:39Z</time>
      </trkpt>
      <trkpt lat="50.37979" lon="4.31329">
        <ele>179.35</ele>
        <time>2014-12-29T08:20:44Z</time>
      </trkpt>
      <trkpt lat="50.38018" lon="4.31399">
        <ele>177.85</ele>
        <time>2014-12-29T08:20:58Z</time>
      </trkpt>
      <trkpt lat="50.38021" lon="4.314">
        <ele>177.04</ele>
        <time>2014-12-29T08:21:05Z</time>
      </trkpt>
      <trkpt lat="50.38024" lon="4.31397">
        <ele>176.49</ele>
        <time>2014-12-29T08:21:20Z</time>
      </trkpt>
      <trkpt lat="50.38043" lon="4.31345">
        <ele>174.76</ele>
        <time>2014-12-29T08:21:40Z</time>
      </trkpt>
      <trkpt lat="50.38064" lon="4.31319">
        <ele>172.8</ele>
        <time>2014-12-29T08:21:58Z</time>
      </trkpt>
      <trkpt lat="50.38096" lon="4.31295">
        <ele>170.64</ele>
        <time>2014-12-29T08:22:12Z</time>
      </trkpt>
      <trkpt lat="50.38125" lon="4.31275">
        <ele>168.95</ele>
        <time>2014-12-29T08:22:25Z</time>
      </trkpt>
      <trkpt lat="50.38157" lon="4.31254">
        <ele>168.16</ele>
        <time>2014-12-29T08:22:37Z</time>
      </trkpt>
      <trkpt lat="50.38192" lon="4.31211">
        <ele>168.74</ele>
        <time>2014-12-29T08:22:51Z</time>
      </trkpt>
      <trkpt lat="50.38224" lon="4.31185">
        <ele>169.5</ele>
        <time>2014-12-29T08:23:04Z</time>
      </trkpt>
      <trkpt lat="50.3826" lon="4.3117">
        <ele>172.11</ele>
        <time>2014-12-29T08:23:17Z</time>
      </trkpt>
      <trkpt lat="50.38315" lon="4.31183">
        <ele>174.29</ele>
        <time>2014-12-29T08:23:33Z</time>
      </trkpt>
      <trkpt lat="50.38356" lon="4.31189">
        <ele>175.56</ele>
        <time>2014-12-29T08:23:47Z</time>
      </trkpt>
      <trkpt lat="50.38392" lon="4.31194">
        <ele>176.26</ele>
        <time>2014-12-29T08:24:03Z</time>
      </trkpt>
      <trkpt lat="50.38437" lon="4.31197">
        <ele>176.5</ele>
        <time>2014-12-29T08:24:23Z</time>
      </trkpt>
      <trkpt lat="50.38473" lon="4.31192">
        <ele>177.39</ele>
        <time>2014-12-29T08:24:41Z</time>
      </trkpt>
      <trkpt lat="50.38522" lon="4.31184">
        <ele>178.26</ele>
        <time>2014-12-29T08:25:02Z</time>
      </trkpt>
      <trkpt lat="50.38576" lon="4.31174">
        <ele>178.99</ele>
        <time>2014-12-29T08:25:20Z</time>
      </trkpt>
      <trkpt lat="50.3862" lon="4.31164">
        <ele>179.86</ele>
        <time>2014-12-29T08:25:34Z</time>
      </trkpt>
      <trkpt lat="50.38685" lon="4.31142">
        <ele>179.26</ele>
        <time>2014-12-29T08:25:52Z</time>
      </trkpt>
      <trkpt lat="50.38739" lon="4.31125">
        <ele>177.87</ele>
        <time>2014-12-29T08:26:07Z</time>
      </trkpt>
      <trkpt lat="50.38782" lon="4.3111">
        <ele>176.87</ele>
        <time>2014-12-29T08:26:21Z</time>
      </trkpt>
      <trkpt lat="50.38788" lon="4.31101">
        <ele>176.25</ele>
        <time>2014-12-29T08:26:27Z</time>
      </trkpt>
      <trkpt lat="50.38785" lon="4.31093">
        <ele>176.11</ele>
        <time>2014-12-29T08:26:30Z</time>
      </trkpt>
      <trkpt lat="50.38784" lon="4.3109">
        <ele>176.15</ele>
        <time>2014-12-29T08:26:31Z</time>
      </trkpt>
      <trkpt lat="50.38781" lon="4.31087">
        <ele>176.29</ele>
        <time>2014-12-29T08:26:32Z</time>
      </trkpt>
      <trkpt lat="50.38779" lon="4.31085">
        <ele>176.49</ele>
        <time>2014-12-29T08:26:33Z</time>
      </trkpt>
      <trkpt lat="50.38734" lon="4.31027">
        <ele>179.35</ele>
        <time>2014-12-29T08:26:54Z</time>
      </trkpt>
      <trkpt lat="50.38694" lon="4.30975">
        <ele>181.18</ele>
        <time>2014-12-29T08:27:13Z</time>
      </trkpt>
      <trkpt lat="50.38657" lon="4.30928">
        <ele>182.78</ele>
        <time>2014-12-29T08:27:30Z</time>
      </trkpt>
      <trkpt lat="50.38619" lon="4.30878">
        <ele>183.53</ele>
        <time>2014-12-29T08:27:46Z</time>
      </trkpt>
      <trkpt lat="50.38576" lon="4.30823">
        <ele>183.85</ele>
        <time>2014-12-29T08:28:04Z</time>
      </trkpt>
      <trkpt lat="50.38516" lon="4.30753">
        <ele>185.08</ele>
        <time>2014-12-29T08:28:26Z</time>
      </trkpt>
      <trkpt lat="50.38494" lon="4.30722">
        <ele>185.93</ele>
        <time>2014-12-29T08:28:36Z</time>
      </trkpt>
      <trkpt lat="50.38493" lon="4.30718">
        <ele>185.99</ele>
        <time>2014-12-29T08:28:37Z</time>
      </trkpt>
      <trkpt lat="50.38493" lon="4.30714">
        <ele>186.09</ele>
        <time>2014-12-29T08:28:38Z</time>
      </trkpt>
      <trkpt lat="50.38505" lon="4.30681">
        <ele>186.51</ele>
        <time>2014-12-29T08:28:49Z</time>
      </trkpt>
      <trkpt lat="50.38509" lon="4.30671">
        <ele>186.1</ele>
        <time>2014-12-29T08:28:57Z</time>
      </trkpt>
      <trkpt lat="50.38521" lon="4.30657">
        <ele>185.71</ele>
        <time>2014-12-29T08:29:32Z</time>
      </trkpt>
      <trkpt lat="50.38528" lon="4.30644">
        <ele>185.41</ele>
        <time>2014-12-29T08:29:38Z</time>
      </trkpt>
      <trkpt lat="50.38554" lon="4.30583">
        <ele>185.16</ele>
        <time>2014-12-29T08:29:54Z</time>
      </trkpt>
      <trkpt lat="50.3858" lon="4.30525">
        <ele>184.01</ele>
        <time>2014-12-29T08:30:07Z</time>
      </trkpt>
      <trkpt lat="50.38603" lon="4.30472">
        <ele>182.96</ele>
        <time>2014-12-29T08:30:19Z</time>
      </trkpt>
      <trkpt lat="50.38626" lon="4.30426">
        <ele>181.42</ele>
        <time>2014-12-29T08:30:31Z</time>
      </trkpt>
      <trkpt lat="50.38648" lon="4.30374">
        <ele>181.16</ele>
        <time>2014-12-29T08:30:44Z</time>
      </trkpt>
      <trkpt lat="50.38675" lon="4.30322">
        <ele>181.1</ele>
        <time>2014-12-29T08:30:58Z</time>
      </trkpt>
      <trkpt lat="50.38697" lon="4.3027">
        <ele>181.98</ele>
        <time>2014-12-29T08:31:10Z</time>
      </trkpt>
      <trkpt lat="50.38716" lon="4.30219">
        <ele>182.02</ele>
        <time>2014-12-29T08:31:21Z</time>
      </trkpt>
      <trkpt lat="50.38738" lon="4.30163">
        <ele>182.11</ele>
        <time>2014-12-29T08:31:33Z</time>
      </trkpt>
      <trkpt lat="50.38759" lon="4.30122">
        <ele>182.66</ele>
        <time>2014-12-29T08:31:44Z</time>
      </trkpt>
      <trkpt lat="50.38787" lon="4.30054">
        <ele>183.49</ele>
        <time>2014-12-29T08:31:59Z</time>
      </trkpt>
      <trkpt lat="50.38806" lon="4.30008">
        <ele>184.68</ele>
        <time>2014-12-29T08:32:10Z</time>
      </trkpt>
      <trkpt lat="50.38827" lon="4.29961">
        <ele>186.25</ele>
        <time>2014-12-29T08:32:22Z</time>
      </trkpt>
      <trkpt lat="50.38852" lon="4.29905">
        <ele>187.2</ele>
        <time>2014-12-29T08:32:36Z</time>
      </trkpt>
      <trkpt lat="50.38873" lon="4.29858">
        <ele>188.25</ele>
        <time>2014-12-29T08:32:50Z</time>
      </trkpt>
      <trkpt lat="50.38897" lon="4.29818">
        <ele>189.44</ele>
        <time>2014-12-29T08:33:03Z</time>
      </trkpt>
      <trkpt lat="50.38921" lon="4.29767">
        <ele>190.33</ele>
        <time>2014-12-29T08:33:17Z</time>
      </trkpt>
      <trkpt lat="50.38948" lon="4.29719">
        <ele>190.63</ele>
        <time>2014-12-29T08:33:31Z</time>
      </trkpt>
      <trkpt lat="50.38973" lon="4.29663">
        <ele>190.87</ele>
        <time>2014-12-29T08:33:45Z</time>
      </trkpt>
      <trkpt lat="50.38992" lon="4.29603">
        <ele>191.25</ele>
        <time>2014-12-29T08:34:00Z</time>
      </trkpt>
      <trkpt lat="50.38992" lon="4.29577">
        <ele>190.93</ele>
        <time>2014-12-29T08:34:15Z</time>
      </trkpt>
      <trkpt lat="50.38984" lon="4.29549">
        <ele>190.26</ele>
        <time>2014-12-29T08:34:27Z</time>
      </trkpt>
      <trkpt lat="50.38968" lon="4.29492">
        <ele>189.59</ele>
        <time>2014-12-29T08:34:45Z</time>
      </trkpt>
      <trkpt lat="50.38958" lon="4.29453">
        <ele>188.46</ele>
        <time>2014-12-29T08:34:57Z</time>
      </trkpt>
      <trkpt lat="50.38946" lon="4.2945">
        <ele>187.98</ele>
        <time>2014-12-29T08:35:08Z</time>
      </trkpt>
      <trkpt lat="50.38932" lon="4.29454">
        <ele>187.92</ele>
        <time>2014-12-29T08:35:15Z</time>
      </trkpt>
      <trkpt lat="50.38891" lon="4.29467">
        <ele>187.56</ele>
        <time>2014-12-29T08:35:28Z</time>
      </trkpt>
      <trkpt lat="50.38879" lon="4.29471">
        <ele>187.77</ele>
        <time>2014-12-29T08:35:31Z</time>
      </trkpt>
      <trkpt lat="50.38849" lon="4.29483">
        <ele>188.18</ele>
        <time>2014-12-29T08:35:37Z</time>
      </trkpt>
      <trkpt lat="50.38841" lon="4.29486">
        <ele>188.16</ele>
        <time>2014-12-29T08:35:39Z</time>
      </trkpt>
      <trkpt lat="50.38822" lon="4.29492">
        <ele>188.2</ele>
        <time>2014-12-29T08:35:43Z</time>
      </trkpt>
      <trkpt lat="50.38768" lon="4.29508">
        <ele>188.42</ele>
        <time>2014-12-29T08:35:57Z</time>
      </trkpt>
      <trkpt lat="50.3872" lon="4.29525">
        <ele>188.63</ele>
        <time>2014-12-29T08:36:09Z</time>
      </trkpt>
      <trkpt lat="50.38694" lon="4.29537">
        <ele>188.55</ele>
        <time>2014-12-29T08:36:16Z</time>
      </trkpt>
      <trkpt lat="50.38648" lon="4.29564">
        <ele>188.35</ele>
        <time>2014-12-29T08:36:27Z</time>
      </trkpt>
      <trkpt lat="50.38597" lon="4.29589">
        <ele>187.78</ele>
        <time>2014-12-29T08:36:39Z</time>
      </trkpt>
      <trkpt lat="50.3854" lon="4.29617">
        <ele>186.98</ele>
        <time>2014-12-29T08:36:54Z</time>
      </trkpt>
      <trkpt lat="50.38532" lon="4.2962">
        <ele>185.99</ele>
        <time>2014-12-29T08:37:01Z</time>
      </trkpt>
      <trkpt lat="50.38517" lon="4.29628">
        <ele>185.73</ele>
        <time>2014-12-29T08:38:00Z</time>
      </trkpt>
      <trkpt lat="50.38488" lon="4.29641">
        <ele>183.8</ele>
        <time>2014-12-29T08:38:10Z</time>
      </trkpt>
      <trkpt lat="50.38444" lon="4.29663">
        <ele>180.68</ele>
        <time>2014-12-29T08:38:19Z</time>
      </trkpt>
      <trkpt lat="50.38438" lon="4.29666">
        <ele>180.28</ele>
        <time>2014-12-29T08:38:20Z</time>
      </trkpt>
      <trkpt lat="50.38409" lon="4.29678">
        <ele>177.98</ele>
        <time>2014-12-29T08:38:25Z</time>
      </trkpt>
      <trkpt lat="50.38383" lon="4.29676">
        <ele>176.57</ele>
        <time>2014-12-29T08:38:30Z</time>
      </trkpt>
      <trkpt lat="50.38313" lon="4.29661">
        <ele>175.59</ele>
        <time>2014-12-29T08:38:45Z</time>
      </trkpt>
      <trkpt lat="50.38283" lon="4.29668">
        <ele>176.69</ele>
        <time>2014-12-29T08:38:53Z</time>
      </trkpt>
      <trkpt lat="50.38277" lon="4.29676">
        <ele>176.83</ele>
        <time>2014-12-29T08:38:57Z</time>
      </trkpt>
      <trkpt lat="50.38283" lon="4.29782">
        <ele>177</ele>
        <time>2014-12-29T08:39:15Z</time>
      </trkpt>
      <trkpt lat="50.38288" lon="4.29845">
        <ele>176.3</ele>
        <time>2014-12-29T08:39:28Z</time>
      </trkpt>
      <trkpt lat="50.38287" lon="4.2987">
        <ele>175.64</ele>
        <time>2014-12-29T08:39:40Z</time>
      </trkpt>
      <trkpt lat="50.3829" lon="4.29903">
        <ele>175.63</ele>
        <time>2014-12-29T08:41:49Z</time>
      </trkpt>
      <trkpt lat="50.38296" lon="4.29968">
        <ele>174.87</ele>
        <time>2014-12-29T08:42:02Z</time>
      </trkpt>
      <trkpt lat="50.38301" lon="4.30032">
        <ele>173.72</ele>
        <time>2014-12-29T08:42:12Z</time>
      </trkpt>
      <trkpt lat="50.38315" lon="4.30104">
        <ele>173.41</ele>
        <time>2014-12-29T08:42:24Z</time>
      </trkpt>
      <trkpt lat="50.38329" lon="4.30157">
        <ele>174.23</ele>
        <time>2014-12-29T08:42:35Z</time>
      </trkpt>
      <trkpt lat="50.38342" lon="4.30216">
        <ele>175.93</ele>
        <time>2014-12-29T08:42:47Z</time>
      </trkpt>
      <trkpt lat="50.38357" lon="4.30274">
        <ele>177.96</ele>
        <time>2014-12-29T08:42:59Z</time>
      </trkpt>
      <trkpt lat="50.3838" lon="4.30336">
        <ele>179.69</ele>
        <time>2014-12-29T08:43:12Z</time>
      </trkpt>
      <trkpt lat="50.38398" lon="4.304">
        <ele>181.49</ele>
        <time>2014-12-29T08:43:25Z</time>
      </trkpt>
      <trkpt lat="50.38412" lon="4.30449">
        <ele>182.77</ele>
        <time>2014-12-29T08:43:35Z</time>
      </trkpt>
      <trkpt lat="50.38428" lon="4.30508">
        <ele>183.33</ele>
        <time>2014-12-29T08:43:45Z</time>
      </trkpt>
      <trkpt lat="50.38447" lon="4.30572">
        <ele>184.55</ele>
        <time>2014-12-29T08:43:58Z</time>
      </trkpt>
      <trkpt lat="50.38465" lon="4.30629">
        <ele>185.52</ele>
        <time>2014-12-29T08:44:09Z</time>
      </trkpt>
      <trkpt lat="50.38485" lon="4.30687">
        <ele>186.17</ele>
        <time>2014-12-29T08:44:21Z</time>
      </trkpt>
      <trkpt lat="50.38487" lon="4.30696">
        <ele>186.18</ele>
        <time>2014-12-29T08:44:24Z</time>
      </trkpt>
      <trkpt lat="50.38486" lon="4.30699">
        <ele>186.18</ele>
        <time>2014-12-29T08:44:25Z</time>
      </trkpt>
      <trkpt lat="50.38485" lon="4.30701">
        <ele>186.22</ele>
        <time>2014-12-29T08:44:26Z</time>
      </trkpt>
      <trkpt lat="50.38483" lon="4.30703">
        <ele>186.34</ele>
        <time>2014-12-29T08:44:27Z</time>
      </trkpt>
      <trkpt lat="50.38482" lon="4.30705">
        <ele>186.41</ele>
        <time>2014-12-29T08:44:28Z</time>
      </trkpt>
      <trkpt lat="50.38476" lon="4.30706">
        <ele>186.8</ele>
        <time>2014-12-29T08:44:36Z</time>
      </trkpt>
      <trkpt lat="50.3847" lon="4.30703">
        <ele>186.64</ele>
        <time>2014-12-29T08:44:56Z</time>
      </trkpt>
      <trkpt lat="50.3844" lon="4.30679">
        <ele>186.8</ele>
        <time>2014-12-29T08:45:12Z</time>
      </trkpt>
      <trkpt lat="50.38403" lon="4.30651">
        <ele>187.01</ele>
        <time>2014-12-29T08:45:25Z</time>
      </trkpt>
      <trkpt lat="50.38355" lon="4.30614">
        <ele>186.64</ele>
        <time>2014-12-29T08:45:41Z</time>
      </trkpt>
      <trkpt lat="50.38301" lon="4.30572">
        <ele>185.54</ele>
        <time>2014-12-29T08:45:56Z</time>
      </trkpt>
      <trkpt lat="50.38233" lon="4.30517">
        <ele>184.19</ele>
        <time>2014-12-29T08:46:13Z</time>
      </trkpt>
      <trkpt lat="50.38177" lon="4.30474">
        <ele>184.23</ele>
        <time>2014-12-29T08:46:27Z</time>
      </trkpt>
      <trkpt lat="50.38141" lon="4.30448">
        <ele>183.99</ele>
        <time>2014-12-29T08:46:38Z</time>
      </trkpt>
      <trkpt lat="50.38091" lon="4.30411">
        <ele>183.88</ele>
        <time>2014-12-29T08:46:53Z</time>
      </trkpt>
      <trkpt lat="50.38062" lon="4.30386">
        <ele>183.85</ele>
        <time>2014-12-29T08:47:01Z</time>
      </trkpt>
      <trkpt lat="50.38044" lon="4.30373">
        <ele>183.66</ele>
        <time>2014-12-29T08:47:05Z</time>
      </trkpt>
      <trkpt lat="50.38008" lon="4.30346">
        <ele>183.35</ele>
        <time>2014-12-29T08:47:13Z</time>
      </trkpt>
      <trkpt lat="50.37963" lon="4.3031">
        <ele>183.57</ele>
        <time>2014-12-29T08:47:23Z</time>
      </trkpt>
      <trkpt lat="50.37948" lon="4.30299">
        <ele>183.26</ele>
        <time>2014-12-29T08:47:26Z</time>
      </trkpt>
      <trkpt lat="50.3788" lon="4.3025">
        <ele>182.39</ele>
        <time>2014-12-29T08:47:40Z</time>
      </trkpt>
      <trkpt lat="50.37821" lon="4.30204">
        <ele>180.86</ele>
        <time>2014-12-29T08:47:52Z</time>
      </trkpt>
      <trkpt lat="50.37796" lon="4.30186">
        <ele>180.67</ele>
        <time>2014-12-29T08:47:57Z</time>
      </trkpt>
      <trkpt lat="50.37736" lon="4.30142">
        <ele>183.09</ele>
        <time>2014-12-29T08:48:11Z</time>
      </trkpt>
      <trkpt lat="50.37721" lon="4.30133">
        <ele>184.79</ele>
        <time>2014-12-29T08:48:22Z</time>
      </trkpt>
      <trkpt lat="50.37696" lon="4.30115">
        <ele>185.36</ele>
        <time>2014-12-29T08:48:33Z</time>
      </trkpt>
      <trkpt lat="50.37674" lon="4.30087">
        <ele>186.15</ele>
        <time>2014-12-29T08:48:46Z</time>
      </trkpt>
      <trkpt lat="50.37672" lon="4.30075">
        <ele>186.27</ele>
        <time>2014-12-29T08:48:50Z</time>
      </trkpt>
      <trkpt lat="50.37663" lon="4.30021">
        <ele>186.62</ele>
        <time>2014-12-29T08:49:07Z</time>
      </trkpt>
      <trkpt lat="50.37657" lon="4.29968">
        <ele>186.31</ele>
        <time>2014-12-29T08:49:21Z</time>
      </trkpt>
      <trkpt lat="50.37653" lon="4.29933">
        <ele>185.83</ele>
        <time>2014-12-29T08:49:28Z</time>
      </trkpt>
      <trkpt lat="50.37661" lon="4.29921">
        <ele>185.61</ele>
        <time>2014-12-29T08:49:33Z</time>
      </trkpt>
      <trkpt lat="50.37701" lon="4.29899">
        <ele>184.82</ele>
        <time>2014-12-29T08:49:46Z</time>
      </trkpt>
      <trkpt lat="50.37756" lon="4.2986">
        <ele>183.55</ele>
        <time>2014-12-29T08:50:00Z</time>
      </trkpt>
      <trkpt lat="50.37801" lon="4.29829">
        <ele>182.4</ele>
        <time>2014-12-29T08:50:12Z</time>
      </trkpt>
      <trkpt lat="50.37844" lon="4.29816">
        <ele>181.59</ele>
        <time>2014-12-29T08:50:22Z</time>
      </trkpt>
      <trkpt lat="50.37882" lon="4.29805">
        <ele>180.52</ele>
        <time>2014-12-29T08:50:31Z</time>
      </trkpt>
      <trkpt lat="50.3795" lon="4.29775">
        <ele>178.07</ele>
        <time>2014-12-29T08:50:46Z</time>
      </trkpt>
      <trkpt lat="50.37983" lon="4.29756">
        <ele>175.92</ele>
        <time>2014-12-29T08:50:53Z</time>
      </trkpt>
      <trkpt lat="50.38015" lon="4.29693">
        <ele>172.34</ele>
        <time>2014-12-29T08:51:02Z</time>
      </trkpt>
      <trkpt lat="50.38015" lon="4.29679">
        <ele>171.64</ele>
        <time>2014-12-29T08:51:04Z</time>
      </trkpt>
      <trkpt lat="50.38011" lon="4.29652">
        <ele>170.4</ele>
        <time>2014-12-29T08:51:12Z</time>
      </trkpt>
      <trkpt lat="50.38014" lon="4.29637">
        <ele>170.28</ele>
        <time>2014-12-29T08:51:16Z</time>
      </trkpt>
      <trkpt lat="50.38038" lon="4.29602">
        <ele>171.12</ele>
        <time>2014-12-29T08:51:29Z</time>
      </trkpt>
      <trkpt lat="50.38043" lon="4.29595">
        <ele>171.38</ele>
        <time>2014-12-29T08:51:33Z</time>
      </trkpt>
      <trkpt lat="50.38045" lon="4.29592">
        <ele>171.78</ele>
        <time>2014-12-29T08:51:35Z</time>
      </trkpt>
      <trkpt lat="50.3807" lon="4.2956">
        <ele>173.81</ele>
        <time>2014-12-29T08:51:48Z</time>
      </trkpt>
      <trkpt lat="50.38116" lon="4.29543">
        <ele>175.95</ele>
        <time>2014-12-29T08:52:03Z</time>
      </trkpt>
      <trkpt lat="50.38168" lon="4.29518">
        <ele>176.93</ele>
        <time>2014-12-29T08:52:18Z</time>
      </trkpt>
      <trkpt lat="50.38187" lon="4.2948">
        <ele>177.38</ele>
        <time>2014-12-29T08:52:30Z</time>
      </trkpt>
      <trkpt lat="50.38161" lon="4.29435">
        <ele>177.52</ele>
        <time>2014-12-29T08:52:47Z</time>
      </trkpt>
      <trkpt lat="50.38137" lon="4.29397">
        <ele>177.43</ele>
        <time>2014-12-29T08:53:00Z</time>
      </trkpt>
      <trkpt lat="50.38109" lon="4.29349">
        <ele>177.07</ele>
        <time>2014-12-29T08:53:13Z</time>
      </trkpt>
      <trkpt lat="50.38072" lon="4.29292">
        <ele>177.18</ele>
        <time>2014-12-29T08:53:29Z</time>
      </trkpt>
      <trkpt lat="50.38031" lon="4.2923">
        <ele>177.14</ele>
        <time>2014-12-29T08:53:46Z</time>
      </trkpt>
      <trkpt lat="50.3799" lon="4.29168">
        <ele>175.69</ele>
        <time>2014-12-29T08:54:00Z</time>
      </trkpt>
      <trkpt lat="50.37954" lon="4.29113">
        <ele>173.7</ele>
        <time>2014-12-29T08:54:12Z</time>
      </trkpt>
      <trkpt lat="50.37905" lon="4.29039">
        <ele>171.47</ele>
        <time>2014-12-29T08:54:26Z</time>
      </trkpt>
      <trkpt lat="50.37898" lon="4.29027">
        <ele>171.63</ele>
        <time>2014-12-29T08:54:28Z</time>
      </trkpt>
      <trkpt lat="50.37853" lon="4.28964">
        <ele>172.59</ele>
        <time>2014-12-29T08:54:42Z</time>
      </trkpt>
      <trkpt lat="50.37845" lon="4.28952">
        <ele>172.41</ele>
        <time>2014-12-29T08:54:45Z</time>
      </trkpt>
      <trkpt lat="50.37837" lon="4.28922">
        <ele>172.07</ele>
        <time>2014-12-29T08:54:52Z</time>
      </trkpt>
      <trkpt lat="50.37823" lon="4.28904">
        <ele>171.73</ele>
        <time>2014-12-29T08:54:59Z</time>
      </trkpt>
      <trkpt lat="50.37785" lon="4.28837">
        <ele>172.31</ele>
        <time>2014-12-29T08:55:16Z</time>
      </trkpt>
      <trkpt lat="50.37761" lon="4.28796">
        <ele>174.64</ele>
        <time>2014-12-29T08:55:30Z</time>
      </trkpt>
      <trkpt lat="50.37736" lon="4.28736">
        <ele>177.22</ele>
        <time>2014-12-29T08:55:45Z</time>
      </trkpt>
      <trkpt lat="50.37709" lon="4.28682">
        <ele>178.16</ele>
        <time>2014-12-29T08:55:59Z</time>
      </trkpt>
      <trkpt lat="50.37681" lon="4.28624">
        <ele>178.76</ele>
        <time>2014-12-29T08:56:13Z</time>
      </trkpt>
      <trkpt lat="50.37654" lon="4.28571">
        <ele>178.58</ele>
        <time>2014-12-29T08:56:25Z</time>
      </trkpt>
      <trkpt lat="50.37629" lon="4.28518">
        <ele>178.23</ele>
        <time>2014-12-29T08:56:36Z</time>
      </trkpt>
      <trkpt lat="50.37603" lon="4.28466">
        <ele>178.59</ele>
        <time>2014-12-29T08:56:46Z</time>
      </trkpt>
      <trkpt lat="50.37559" lon="4.2838">
        <ele>177.54</ele>
        <time>2014-12-29T08:56:58Z</time>
      </trkpt>
      <trkpt lat="50.37516" lon="4.28299">
        <ele>179.88</ele>
        <time>2014-12-29T08:57:10Z</time>
      </trkpt>
      <trkpt lat="50.37488" lon="4.28237">
        <ele>182.39</ele>
        <time>2014-12-29T08:57:23Z</time>
      </trkpt>
      <trkpt lat="50.37461" lon="4.28186">
        <ele>183.36</ele>
        <time>2014-12-29T08:57:34Z</time>
      </trkpt>
      <trkpt lat="50.37426" lon="4.28115">
        <ele>183.53</ele>
        <time>2014-12-29T08:57:49Z</time>
      </trkpt>
      <trkpt lat="50.3739" lon="4.28048">
        <ele>183.3</ele>
        <time>2014-12-29T08:58:01Z</time>
      </trkpt>
      <trkpt lat="50.37367" lon="4.28019">
        <ele>183.25</ele>
        <time>2014-12-29T08:58:11Z</time>
      </trkpt>
      <trkpt lat="50.37343" lon="4.28011">
        <ele>182.29</ele>
        <time>2014-12-29T09:04:18Z</time>
      </trkpt>
      <trkpt lat="50.37343" lon="4.28015">
        <ele>182.24</ele>
        <time>2014-12-29T09:04:19Z</time>
      </trkpt>
      <trkpt lat="50.37342" lon="4.28019">
        <ele>182.18</ele>
        <time>2014-12-29T09:04:20Z</time>
      </trkpt>
      <trkpt lat="50.3734" lon="4.28024">
        <ele>182.08</ele>
        <time>2014-12-29T09:04:21Z</time>
      </trkpt>
      <trkpt lat="50.37339" lon="4.2803">
        <ele>181.98</ele>
        <time>2014-12-29T09:04:22Z</time>
      </trkpt>
      <trkpt lat="50.37314" lon="4.28114">
        <ele>179.6</ele>
        <time>2014-12-29T09:04:34Z</time>
      </trkpt>
      <trkpt lat="50.37288" lon="4.28198">
        <ele>176.35</ele>
        <time>2014-12-29T09:04:43Z</time>
      </trkpt>
      <trkpt lat="50.3728" lon="4.28229">
        <ele>175.45</ele>
        <time>2014-12-29T09:04:46Z</time>
      </trkpt>
      <trkpt lat="50.37255" lon="4.28305">
        <ele>172.4</ele>
        <time>2014-12-29T09:04:54Z</time>
      </trkpt>
      <trkpt lat="50.37227" lon="4.28369">
        <ele>169.24</ele>
        <time>2014-12-29T09:05:02Z</time>
      </trkpt>
      <trkpt lat="50.37171" lon="4.28447">
        <ele>166</ele>
        <time>2014-12-29T09:05:13Z</time>
      </trkpt>
      <trkpt lat="50.37135" lon="4.28495">
        <ele>162.79</ele>
        <time>2014-12-29T09:05:22Z</time>
      </trkpt>
      <trkpt lat="50.37124" lon="4.28504">
        <ele>161.36</ele>
        <time>2014-12-29T09:05:27Z</time>
      </trkpt>
      <trkpt lat="50.37113" lon="4.28495">
        <ele>160.8</ele>
        <time>2014-12-29T09:05:38Z</time>
      </trkpt>
      <trkpt lat="50.37084" lon="4.28491">
        <ele>162.81</ele>
        <time>2014-12-29T09:05:51Z</time>
      </trkpt>
      <trkpt lat="50.37055" lon="4.28468">
        <ele>165.04</ele>
        <time>2014-12-29T09:06:03Z</time>
      </trkpt>
      <trkpt lat="50.37036" lon="4.28426">
        <ele>166.3</ele>
        <time>2014-12-29T09:06:13Z</time>
      </trkpt>
      <trkpt lat="50.37011" lon="4.28381">
        <ele>167.81</ele>
        <time>2014-12-29T09:06:24Z</time>
      </trkpt>
      <trkpt lat="50.36973" lon="4.28348">
        <ele>169.24</ele>
        <time>2014-12-29T09:06:37Z</time>
      </trkpt>
      <trkpt lat="50.36951" lon="4.28312">
        <ele>169.18</ele>
        <time>2014-12-29T09:06:47Z</time>
      </trkpt>
      <trkpt lat="50.3695" lon="4.28265">
        <ele>169.91</ele>
        <time>2014-12-29T09:06:59Z</time>
      </trkpt>
      <trkpt lat="50.36949" lon="4.2821">
        <ele>172.02</ele>
        <time>2014-12-29T09:07:11Z</time>
      </trkpt>
      <trkpt lat="50.36946" lon="4.28193">
        <ele>173.2</ele>
        <time>2014-12-29T09:07:22Z</time>
      </trkpt>
      <trkpt lat="50.36946" lon="4.28176">
        <ele>173.43</ele>
        <time>2014-12-29T09:07:30Z</time>
      </trkpt>
      <trkpt lat="50.36946" lon="4.28119">
        <ele>175.02</ele>
        <time>2014-12-29T09:07:42Z</time>
      </trkpt>
      <trkpt lat="50.36948" lon="4.2807">
        <ele>176.35</ele>
        <time>2014-12-29T09:07:52Z</time>
      </trkpt>
      <trkpt lat="50.36949" lon="4.28019">
        <ele>178.29</ele>
        <time>2014-12-29T09:08:02Z</time>
      </trkpt>
      <trkpt lat="50.36952" lon="4.27949">
        <ele>180.31</ele>
        <time>2014-12-29T09:08:16Z</time>
      </trkpt>
      <trkpt lat="50.36953" lon="4.27887">
        <ele>181.96</ele>
        <time>2014-12-29T09:08:27Z</time>
      </trkpt>
      <trkpt lat="50.36952" lon="4.27875">
        <ele>182.37</ele>
        <time>2014-12-29T09:08:29Z</time>
      </trkpt>
      <trkpt lat="50.36929" lon="4.2786">
        <ele>182.79</ele>
        <time>2014-12-29T09:08:38Z</time>
      </trkpt>
      <trkpt lat="50.36909" lon="4.27846">
        <ele>182.5</ele>
        <time>2014-12-29T09:08:46Z</time>
      </trkpt>
      <trkpt lat="50.36886" lon="4.27843">
        <ele>181.32</ele>
        <time>2014-12-29T09:08:53Z</time>
      </trkpt>
      <trkpt lat="50.36878" lon="4.27852">
        <ele>180.49</ele>
        <time>2014-12-29T09:08:56Z</time>
      </trkpt>
      <trkpt lat="50.36864" lon="4.27888">
        <ele>177.48</ele>
        <time>2014-12-29T09:09:01Z</time>
      </trkpt>
      <trkpt lat="50.36848" lon="4.27914">
        <ele>175.49</ele>
        <time>2014-12-29T09:09:05Z</time>
      </trkpt>
      <trkpt lat="50.36836" lon="4.27929">
        <ele>173.89</ele>
        <time>2014-12-29T09:09:10Z</time>
      </trkpt>
      <trkpt lat="50.36823" lon="4.27944">
        <ele>174.08</ele>
        <time>2014-12-29T09:09:16Z</time>
      </trkpt>
      <trkpt lat="50.36815" lon="4.27955">
        <ele>174.67</ele>
        <time>2014-12-29T09:09:20Z</time>
      </trkpt>
      <trkpt lat="50.36798" lon="4.2799">
        <ele>176.18</ele>
        <time>2014-12-29T09:09:33Z</time>
      </trkpt>
      <trkpt lat="50.36796" lon="4.27994">
        <ele>176.25</ele>
        <time>2014-12-29T09:09:35Z</time>
      </trkpt>
      <trkpt lat="50.36775" lon="4.28036">
        <ele>175.96</ele>
        <time>2014-12-29T09:09:48Z</time>
      </trkpt>
      <trkpt lat="50.36752" lon="4.28088">
        <ele>175.56</ele>
        <time>2014-12-29T09:10:00Z</time>
      </trkpt>
      <trkpt lat="50.36754" lon="4.28098">
        <ele>175.52</ele>
        <time>2014-12-29T09:10:02Z</time>
      </trkpt>
      <trkpt lat="50.36755" lon="4.28108">
        <ele>175.34</ele>
        <time>2014-12-29T09:10:04Z</time>
      </trkpt>
      <trkpt lat="50.36749" lon="4.28152">
        <ele>172.47</ele>
        <time>2014-12-29T09:10:15Z</time>
      </trkpt>
      <trkpt lat="50.36748" lon="4.28153">
        <ele>171.93</ele>
        <time>2014-12-29T09:10:18Z</time>
      </trkpt>
      <trkpt lat="50.36743" lon="4.28156">
        <ele>171.37</ele>
        <time>2014-12-29T09:10:51Z</time>
      </trkpt>
      <trkpt lat="50.36748" lon="4.28116">
        <ele>172.93</ele>
        <time>2014-12-29T09:11:05Z</time>
      </trkpt>
      <trkpt lat="50.36748" lon="4.2811">
        <ele>174.59</ele>
        <time>2014-12-29T09:11:13Z</time>
      </trkpt>
      <trkpt lat="50.36751" lon="4.28115">
        <ele>174.56</ele>
        <time>2014-12-29T09:11:35Z</time>
      </trkpt>
      <trkpt lat="50.36752" lon="4.28129">
        <ele>174.19</ele>
        <time>2014-12-29T09:11:38Z</time>
      </trkpt>
      <trkpt lat="50.36745" lon="4.28162">
        <ele>172.86</ele>
        <time>2014-12-29T09:11:43Z</time>
      </trkpt>
      <trkpt lat="50.36739" lon="4.28185">
        <ele>171.64</ele>
        <time>2014-12-29T09:11:46Z</time>
      </trkpt>
      <trkpt lat="50.36724" lon="4.282">
        <ele>171.07</ele>
        <time>2014-12-29T09:11:50Z</time>
      </trkpt>
      <trkpt lat="50.36686" lon="4.28223">
        <ele>172.72</ele>
        <time>2014-12-29T09:12:02Z</time>
      </trkpt>
      <trkpt lat="50.36648" lon="4.28261">
        <ele>174.5</ele>
        <time>2014-12-29T09:12:14Z</time>
      </trkpt>
      <trkpt lat="50.36622" lon="4.28322">
        <ele>175.6</ele>
        <time>2014-12-29T09:12:26Z</time>
      </trkpt>
      <trkpt lat="50.36588" lon="4.28373">
        <ele>176.57</ele>
        <time>2014-12-29T09:12:37Z</time>
      </trkpt>
      <trkpt lat="50.36561" lon="4.28415">
        <ele>176.9</ele>
        <time>2014-12-29T09:12:46Z</time>
      </trkpt>
      <trkpt lat="50.36535" lon="4.28462">
        <ele>176.95</ele>
        <time>2014-12-29T09:12:55Z</time>
      </trkpt>
      <trkpt lat="50.36523" lon="4.28497">
        <ele>176.82</ele>
        <time>2014-12-29T09:13:00Z</time>
      </trkpt>
      <trkpt lat="50.36494" lon="4.28595">
        <ele>175.81</ele>
        <time>2014-12-29T09:13:14Z</time>
      </trkpt>
      <trkpt lat="50.3648" lon="4.28621">
        <ele>175.29</ele>
        <time>2014-12-29T09:13:18Z</time>
      </trkpt>
      <trkpt lat="50.36444" lon="4.28645">
        <ele>174.09</ele>
        <time>2014-12-29T09:13:29Z</time>
      </trkpt>
      <trkpt lat="50.36399" lon="4.28621">
        <ele>174.67</ele>
        <time>2014-12-29T09:13:43Z</time>
      </trkpt>
      <trkpt lat="50.36391" lon="4.28616">
        <ele>174.95</ele>
        <time>2014-12-29T09:13:46Z</time>
      </trkpt>
      <trkpt lat="50.36379" lon="4.28614">
        <ele>175.37</ele>
        <time>2014-12-29T09:13:50Z</time>
      </trkpt>
      <trkpt lat="50.36375" lon="4.28612">
        <ele>175.54</ele>
        <time>2014-12-29T09:13:51Z</time>
      </trkpt>
      <trkpt lat="50.36335" lon="4.28591">
        <ele>176.75</ele>
        <time>2014-12-29T09:14:03Z</time>
      </trkpt>
      <trkpt lat="50.36293" lon="4.2857">
        <ele>177.47</ele>
        <time>2014-12-29T09:14:16Z</time>
      </trkpt>
      <trkpt lat="50.36252" lon="4.28556">
        <ele>177.84</ele>
        <time>2014-12-29T09:14:29Z</time>
      </trkpt>
      <trkpt lat="50.36206" lon="4.28536">
        <ele>178.89</ele>
        <time>2014-12-29T09:14:45Z</time>
      </trkpt>
      <trkpt lat="50.36157" lon="4.28515">
        <ele>180.28</ele>
        <time>2014-12-29T09:14:59Z</time>
      </trkpt>
      <trkpt lat="50.361" lon="4.2849">
        <ele>183.03</ele>
        <time>2014-12-29T09:15:14Z</time>
      </trkpt>
      <trkpt lat="50.36034" lon="4.28461">
        <ele>185.37</ele>
        <time>2014-12-29T09:15:30Z</time>
      </trkpt>
      <trkpt lat="50.35966" lon="4.28459">
        <ele>187.31</ele>
        <time>2014-12-29T09:15:46Z</time>
      </trkpt>
      <trkpt lat="50.35909" lon="4.28463">
        <ele>188.71</ele>
        <time>2014-12-29T09:16:02Z</time>
      </trkpt>
      <trkpt lat="50.35903" lon="4.28465">
        <ele>188.24</ele>
        <time>2014-12-29T09:16:05Z</time>
      </trkpt>
      <trkpt lat="50.35895" lon="4.28476">
        <ele>187.5</ele>
        <time>2014-12-29T09:16:11Z</time>
      </trkpt>
      <trkpt lat="50.35895" lon="4.28487">
        <ele>187.09</ele>
        <time>2014-12-29T09:16:15Z</time>
      </trkpt>
      <trkpt lat="50.35895" lon="4.2849">
        <ele>186.95</ele>
        <time>2014-12-29T09:16:16Z</time>
      </trkpt>
      <trkpt lat="50.35895" lon="4.28494">
        <ele>186.8</ele>
        <time>2014-12-29T09:16:17Z</time>
      </trkpt>
      <trkpt lat="50.35895" lon="4.28497">
        <ele>186.63</ele>
        <time>2014-12-29T09:16:18Z</time>
      </trkpt>
      <trkpt lat="50.35897" lon="4.28571">
        <ele>185.73</ele>
        <time>2014-12-29T09:16:33Z</time>
      </trkpt>
      <trkpt lat="50.35898" lon="4.28638">
        <ele>186.22</ele>
        <time>2014-12-29T09:16:48Z</time>
      </trkpt>
      <trkpt lat="50.359" lon="4.28708">
        <ele>186.53</ele>
        <time>2014-12-29T09:17:02Z</time>
      </trkpt>
      <trkpt lat="50.35903" lon="4.2878">
        <ele>186.92</ele>
        <time>2014-12-29T09:17:18Z</time>
      </trkpt>
      <trkpt lat="50.35905" lon="4.28842">
        <ele>186.66</ele>
        <time>2014-12-29T09:17:32Z</time>
      </trkpt>
      <trkpt lat="50.35907" lon="4.28934">
        <ele>187.11</ele>
        <time>2014-12-29T09:17:50Z</time>
      </trkpt>
      <trkpt lat="50.3591" lon="4.2904">
        <ele>186.79</ele>
        <time>2014-12-29T09:18:11Z</time>
      </trkpt>
      <trkpt lat="50.35913" lon="4.29133">
        <ele>186.33</ele>
        <time>2014-12-29T09:18:29Z</time>
      </trkpt>
      <trkpt lat="50.35907" lon="4.29223">
        <ele>187.57</ele>
        <time>2014-12-29T09:18:48Z</time>
      </trkpt>
      <trkpt lat="50.35868" lon="4.29232">
        <ele>188.03</ele>
        <time>2014-12-29T09:19:02Z</time>
      </trkpt>
      <trkpt lat="50.3581" lon="4.29235">
        <ele>187.17</ele>
        <time>2014-12-29T09:19:18Z</time>
      </trkpt>
      <trkpt lat="50.35751" lon="4.29239">
        <ele>186.68</ele>
        <time>2014-12-29T09:19:33Z</time>
      </trkpt>
      <trkpt lat="50.35695" lon="4.29242">
        <ele>187.29</ele>
        <time>2014-12-29T09:19:48Z</time>
      </trkpt>
      <trkpt lat="50.35639" lon="4.29244">
        <ele>187.75</ele>
        <time>2014-12-29T09:20:04Z</time>
      </trkpt>
      <trkpt lat="50.35559" lon="4.29247">
        <ele>188.68</ele>
        <time>2014-12-29T09:20:27Z</time>
      </trkpt>
      <trkpt lat="50.35495" lon="4.2925">
        <ele>189.74</ele>
        <time>2014-12-29T09:20:47Z</time>
      </trkpt>
      <trkpt lat="50.35451" lon="4.29256">
        <ele>190.75</ele>
        <time>2014-12-29T09:21:01Z</time>
      </trkpt>
      <trkpt lat="50.35449" lon="4.2926">
        <ele>191.01</ele>
        <time>2014-12-29T09:21:02Z</time>
      </trkpt>
      <trkpt lat="50.35449" lon="4.29265">
        <ele>191.13</ele>
        <time>2014-12-29T09:21:03Z</time>
      </trkpt>
      <trkpt lat="50.35449" lon="4.2927">
        <ele>191.25</ele>
        <time>2014-12-29T09:21:04Z</time>
      </trkpt>
      <trkpt lat="50.35448" lon="4.29275">
        <ele>191.34</ele>
        <time>2014-12-29T09:21:05Z</time>
      </trkpt>
      <trkpt lat="50.35448" lon="4.2928">
        <ele>191.41</ele>
        <time>2014-12-29T09:21:06Z</time>
      </trkpt>
      <trkpt lat="50.35449" lon="4.2937">
        <ele>192.76</ele>
        <time>2014-12-29T09:21:23Z</time>
      </trkpt>
      <trkpt lat="50.35451" lon="4.29497">
        <ele>193.22</ele>
        <time>2014-12-29T09:21:44Z</time>
      </trkpt>
      <trkpt lat="50.35452" lon="4.29503">
        <ele>193.31</ele>
        <time>2014-12-29T09:21:45Z</time>
      </trkpt>
      <trkpt lat="50.35453" lon="4.29612">
        <ele>192.27</ele>
        <time>2014-12-29T09:22:02Z</time>
      </trkpt>
      <trkpt lat="50.35451" lon="4.29638">
        <ele>192.37</ele>
        <time>2014-12-29T09:22:07Z</time>
      </trkpt>
      <trkpt lat="50.35449" lon="4.2964">
        <ele>192.4</ele>
        <time>2014-12-29T09:22:08Z</time>
      </trkpt>
      <trkpt lat="50.35447" lon="4.29641">
        <ele>192.39</ele>
        <time>2014-12-29T09:22:09Z</time>
      </trkpt>
      <trkpt lat="50.35444" lon="4.29642">
        <ele>192.38</ele>
        <time>2014-12-29T09:22:10Z</time>
      </trkpt>
      <trkpt lat="50.3544" lon="4.29643">
        <ele>192.37</ele>
        <time>2014-12-29T09:22:11Z</time>
      </trkpt>
      <trkpt lat="50.35437" lon="4.29644">
        <ele>192.35</ele>
        <time>2014-12-29T09:22:12Z</time>
      </trkpt>
      <trkpt lat="50.35433" lon="4.29644">
        <ele>192.33</ele>
        <time>2014-12-29T09:22:13Z</time>
      </trkpt>
      <trkpt lat="50.3536" lon="4.2965">
        <ele>191.91</ele>
        <time>2014-12-29T09:22:31Z</time>
      </trkpt>
      <trkpt lat="50.35312" lon="4.29651">
        <ele>191.26</ele>
        <time>2014-12-29T09:22:42Z</time>
      </trkpt>
      <trkpt lat="50.35245" lon="4.2965">
        <ele>189.69</ele>
        <time>2014-12-29T09:22:58Z</time>
      </trkpt>
      <trkpt lat="50.35185" lon="4.29663">
        <ele>188.25</ele>
        <time>2014-12-29T09:23:13Z</time>
      </trkpt>
      <trkpt lat="50.35108" lon="4.29682">
        <ele>186.18</ele>
        <time>2014-12-29T09:23:30Z</time>
      </trkpt>
      <trkpt lat="50.35061" lon="4.29695">
        <ele>184.99</ele>
        <time>2014-12-29T09:23:41Z</time>
      </trkpt>
      <trkpt lat="50.35053" lon="4.29696">
        <ele>184.86</ele>
        <time>2014-12-29T09:23:43Z</time>
      </trkpt>
      <trkpt lat="50.35048" lon="4.29697">
        <ele>184.72</ele>
        <time>2014-12-29T09:23:44Z</time>
      </trkpt>
      <trkpt lat="50.35031" lon="4.29697">
        <ele>184.29</ele>
        <time>2014-12-29T09:23:48Z</time>
      </trkpt>
      <trkpt lat="50.35015" lon="4.29701">
        <ele>184.01</ele>
        <time>2014-12-29T09:23:53Z</time>
      </trkpt>
      <trkpt lat="50.35013" lon="4.29704">
        <ele>183.98</ele>
        <time>2014-12-29T09:23:54Z</time>
      </trkpt>
      <trkpt lat="50.35012" lon="4.29708">
        <ele>183.98</ele>
        <time>2014-12-29T09:23:55Z</time>
      </trkpt>
      <trkpt lat="50.35008" lon="4.29729">
        <ele>183.59</ele>
        <time>2014-12-29T09:24:01Z</time>
      </trkpt>
      <trkpt lat="50.35005" lon="4.29743">
        <ele>182.48</ele>
        <time>2014-12-29T09:24:09Z</time>
      </trkpt>
      <trkpt lat="50.35005" lon="4.29759">
        <ele>182.44</ele>
        <time>2014-12-29T09:24:13Z</time>
      </trkpt>
      <trkpt lat="50.35009" lon="4.29832">
        <ele>183.32</ele>
        <time>2014-12-29T09:24:26Z</time>
      </trkpt>
      <trkpt lat="50.35006" lon="4.29842">
        <ele>183.5</ele>
        <time>2014-12-29T09:24:28Z</time>
      </trkpt>
      <trkpt lat="50.3498" lon="4.29901">
        <ele>182.78</ele>
        <time>2014-12-29T09:24:39Z</time>
      </trkpt>
      <trkpt lat="50.34979" lon="4.29989">
        <ele>182.9</ele>
        <time>2014-12-29T09:24:51Z</time>
      </trkpt>
      <trkpt lat="50.34984" lon="4.30015">
        <ele>183.66</ele>
        <time>2014-12-29T09:24:59Z</time>
      </trkpt>
      <trkpt lat="50.34985" lon="4.30028">
        <ele>183.56</ele>
        <time>2014-12-29T09:25:14Z</time>
      </trkpt>
      <trkpt lat="50.34977" lon="4.30057">
        <ele>182.65</ele>
        <time>2014-12-29T09:32:36Z</time>
      </trkpt>
      <trkpt lat="50.34982" lon="4.30063">
        <ele>182.59</ele>
        <time>2014-12-29T09:32:39Z</time>
      </trkpt>
      <trkpt lat="50.34995" lon="4.3009">
        <ele>182.66</ele>
        <time>2014-12-29T09:32:46Z</time>
      </trkpt>
      <trkpt lat="50.35007" lon="4.30114">
        <ele>182.52</ele>
        <time>2014-12-29T09:32:51Z</time>
      </trkpt>
      <trkpt lat="50.35016" lon="4.30129">
        <ele>182.47</ele>
        <time>2014-12-29T09:32:54Z</time>
      </trkpt>
      <trkpt lat="50.35052" lon="4.30176">
        <ele>181.7</ele>
        <time>2014-12-29T09:33:05Z</time>
      </trkpt>
      <trkpt lat="50.35093" lon="4.30204">
        <ele>181.37</ele>
        <time>2014-12-29T09:33:16Z</time>
      </trkpt>
      <trkpt lat="50.35104" lon="4.30223">
        <ele>181.12</ele>
        <time>2014-12-29T09:33:20Z</time>
      </trkpt>
      <trkpt lat="50.35117" lon="4.30288">
        <ele>180.52</ele>
        <time>2014-12-29T09:33:32Z</time>
      </trkpt>
      <trkpt lat="50.35132" lon="4.30314">
        <ele>179.69</ele>
        <time>2014-12-29T09:33:37Z</time>
      </trkpt>
      <trkpt lat="50.35161" lon="4.30326">
        <ele>179.34</ele>
        <time>2014-12-29T09:33:42Z</time>
      </trkpt>
      <trkpt lat="50.35188" lon="4.30364">
        <ele>178.79</ele>
        <time>2014-12-29T09:33:52Z</time>
      </trkpt>
      <trkpt lat="50.35213" lon="4.30415">
        <ele>177.46</ele>
        <time>2014-12-29T09:34:04Z</time>
      </trkpt>
      <trkpt lat="50.35242" lon="4.30459">
        <ele>176.43</ele>
        <time>2014-12-29T09:34:15Z</time>
      </trkpt>
      <trkpt lat="50.3525" lon="4.30468">
        <ele>176.26</ele>
        <time>2014-12-29T09:34:17Z</time>
      </trkpt>
      <trkpt lat="50.35305" lon="4.30496">
        <ele>174.72</ele>
        <time>2014-12-29T09:34:27Z</time>
      </trkpt>
      <trkpt lat="50.35334" lon="4.30516">
        <ele>174.11</ele>
        <time>2014-12-29T09:34:33Z</time>
      </trkpt>
      <trkpt lat="50.35374" lon="4.30581">
        <ele>172.01</ele>
        <time>2014-12-29T09:34:44Z</time>
      </trkpt>
      <trkpt lat="50.35382" lon="4.30602">
        <ele>171.42</ele>
        <time>2014-12-29T09:34:47Z</time>
      </trkpt>
      <trkpt lat="50.3541" lon="4.30654">
        <ele>168.9</ele>
        <time>2014-12-29T09:34:55Z</time>
      </trkpt>
      <trkpt lat="50.35425" lon="4.307">
        <ele>166.99</ele>
        <time>2014-12-29T09:35:00Z</time>
      </trkpt>
      <trkpt lat="50.35458" lon="4.30734">
        <ele>163.5</ele>
        <time>2014-12-29T09:35:06Z</time>
      </trkpt>
      <trkpt lat="50.35488" lon="4.30756">
        <ele>159.95</ele>
        <time>2014-12-29T09:35:14Z</time>
      </trkpt>
      <trkpt lat="50.3551" lon="4.30781">
        <ele>156.6</ele>
        <time>2014-12-29T09:35:22Z</time>
      </trkpt>
      <trkpt lat="50.35528" lon="4.30807">
        <ele>153.44</ele>
        <time>2014-12-29T09:35:29Z</time>
      </trkpt>
      <trkpt lat="50.35543" lon="4.30819">
        <ele>151.31</ele>
        <time>2014-12-29T09:35:33Z</time>
      </trkpt>
      <trkpt lat="50.35567" lon="4.30843">
        <ele>147.54</ele>
        <time>2014-12-29T09:35:40Z</time>
      </trkpt>
      <trkpt lat="50.35574" lon="4.30847">
        <ele>146.09</ele>
        <time>2014-12-29T09:35:42Z</time>
      </trkpt>
      <trkpt lat="50.35591" lon="4.30857">
        <ele>141.9</ele>
        <time>2014-12-29T09:35:50Z</time>
      </trkpt>
      <trkpt lat="50.35612" lon="4.30876">
        <ele>138.68</ele>
        <time>2014-12-29T09:35:59Z</time>
      </trkpt>
      <trkpt lat="50.35635" lon="4.30895">
        <ele>135.45</ele>
        <time>2014-12-29T09:36:10Z</time>
      </trkpt>
      <trkpt lat="50.35659" lon="4.30913">
        <ele>132.44</ele>
        <time>2014-12-29T09:36:17Z</time>
      </trkpt>
      <trkpt lat="50.35688" lon="4.30939">
        <ele>129.29</ele>
        <time>2014-12-29T09:36:25Z</time>
      </trkpt>
      <trkpt lat="50.35717" lon="4.30963">
        <ele>126.31</ele>
        <time>2014-12-29T09:36:34Z</time>
      </trkpt>
      <trkpt lat="50.35761" lon="4.30975">
        <ele>125.1</ele>
        <time>2014-12-29T09:36:45Z</time>
      </trkpt>
      <trkpt lat="50.35798" lon="4.30982">
        <ele>125.35</ele>
        <time>2014-12-29T09:36:55Z</time>
      </trkpt>
      <trkpt lat="50.35832" lon="4.30973">
        <ele>124.26</ele>
        <time>2014-12-29T09:37:04Z</time>
      </trkpt>
      <trkpt lat="50.35852" lon="4.30956">
        <ele>123.44</ele>
        <time>2014-12-29T09:37:08Z</time>
      </trkpt>
      <trkpt lat="50.3589" lon="4.30938">
        <ele>122.04</ele>
        <time>2014-12-29T09:37:15Z</time>
      </trkpt>
      <trkpt lat="50.35912" lon="4.3093">
        <ele>121.28</ele>
        <time>2014-12-29T09:37:19Z</time>
      </trkpt>
      <trkpt lat="50.35933" lon="4.3092">
        <ele>120.86</ele>
        <time>2014-12-29T09:37:23Z</time>
      </trkpt>
      <trkpt lat="50.36008" lon="4.30871">
        <ele>120.71</ele>
        <time>2014-12-29T09:37:37Z</time>
      </trkpt>
      <trkpt lat="50.3609" lon="4.30815">
        <ele>118.92</ele>
        <time>2014-12-29T09:37:50Z</time>
      </trkpt>
      <trkpt lat="50.36121" lon="4.30794">
        <ele>117.68</ele>
        <time>2014-12-29T09:37:55Z</time>
      </trkpt>
      <trkpt lat="50.36165" lon="4.30765">
        <ele>115.92</ele>
        <time>2014-12-29T09:38:05Z</time>
      </trkpt>
      <trkpt lat="50.36182" lon="4.30754">
        <ele>115.39</ele>
        <time>2014-12-29T09:38:17Z</time>
      </trkpt>
      <trkpt lat="50.36182" lon="4.30753">
        <ele>115.39</ele>
        <time>2014-12-29T09:38:20Z</time>
      </trkpt>
      <trkpt lat="50.36192" lon="4.30763">
        <ele>114.67</ele>
        <time>2014-12-29T09:40:45Z</time>
      </trkpt>
      <trkpt lat="50.36218" lon="4.30811">
        <ele>112.51</ele>
        <time>2014-12-29T09:40:54Z</time>
      </trkpt>
      <trkpt lat="50.3625" lon="4.30865">
        <ele>109.77</ele>
        <time>2014-12-29T09:41:02Z</time>
      </trkpt>
      <trkpt lat="50.3626" lon="4.30878">
        <ele>109.13</ele>
        <time>2014-12-29T09:41:05Z</time>
      </trkpt>
      <trkpt lat="50.36263" lon="4.30883">
        <ele>109</ele>
        <time>2014-12-29T09:41:06Z</time>
      </trkpt>
      <trkpt lat="50.36265" lon="4.30888">
        <ele>108.89</ele>
        <time>2014-12-29T09:41:07Z</time>
      </trkpt>
      <trkpt lat="50.36268" lon="4.30893">
        <ele>108.84</ele>
        <time>2014-12-29T09:41:08Z</time>
      </trkpt>
      <trkpt lat="50.3627" lon="4.30898">
        <ele>108.77</ele>
        <time>2014-12-29T09:41:09Z</time>
      </trkpt>
      <trkpt lat="50.36274" lon="4.30901">
        <ele>108.73</ele>
        <time>2014-12-29T09:41:10Z</time>
      </trkpt>
      <trkpt lat="50.36278" lon="4.30901">
        <ele>108.7</ele>
        <time>2014-12-29T09:41:11Z</time>
      </trkpt>
      <trkpt lat="50.36282" lon="4.309">
        <ele>108.67</ele>
        <time>2014-12-29T09:41:12Z</time>
      </trkpt>
      <trkpt lat="50.3629" lon="4.30897">
        <ele>108.61</ele>
        <time>2014-12-29T09:41:14Z</time>
      </trkpt>
      <trkpt lat="50.36346" lon="4.30871">
        <ele>108.67</ele>
        <time>2014-12-29T09:41:29Z</time>
      </trkpt>
      <trkpt lat="50.36384" lon="4.30862">
        <ele>108.85</ele>
        <time>2014-12-29T09:41:39Z</time>
      </trkpt>
      <trkpt lat="50.36407" lon="4.30855">
        <ele>108.63</ele>
        <time>2014-12-29T09:41:45Z</time>
      </trkpt>
      <trkpt lat="50.36435" lon="4.30855">
        <ele>108.89</ele>
        <time>2014-12-29T09:41:52Z</time>
      </trkpt>
      <trkpt lat="50.36492" lon="4.30851">
        <ele>109.09</ele>
        <time>2014-12-29T09:42:06Z</time>
      </trkpt>
      <trkpt lat="50.36554" lon="4.30856">
        <ele>108.69</ele>
        <time>2014-12-29T09:42:22Z</time>
      </trkpt>
      <trkpt lat="50.36588" lon="4.30868">
        <ele>108.23</ele>
        <time>2014-12-29T09:42:33Z</time>
      </trkpt>
      <trkpt lat="50.36617" lon="4.30877">
        <ele>108.25</ele>
        <time>2014-12-29T09:42:42Z</time>
      </trkpt>
      <trkpt lat="50.36655" lon="4.30892">
        <ele>107.98</ele>
        <time>2014-12-29T09:42:54Z</time>
      </trkpt>
      <trkpt lat="50.36693" lon="4.3091">
        <ele>107.85</ele>
        <time>2014-12-29T09:43:06Z</time>
      </trkpt>
      <trkpt lat="50.36717" lon="4.30924">
        <ele>111.13</ele>
        <time>2014-12-29T09:43:18Z</time>
      </trkpt>
      <trkpt lat="50.36741" lon="4.30941">
        <ele>114.27</ele>
        <time>2014-12-29T09:43:28Z</time>
      </trkpt>
      <trkpt lat="50.36783" lon="4.30989">
        <ele>115</ele>
        <time>2014-12-29T09:43:41Z</time>
      </trkpt>
      <trkpt lat="50.36832" lon="4.31048">
        <ele>115.71</ele>
        <time>2014-12-29T09:43:57Z</time>
      </trkpt>
      <trkpt lat="50.36831" lon="4.31058">
        <ele>116.82</ele>
        <time>2014-12-29T09:44:06Z</time>
      </trkpt>
      <trkpt lat="50.36826" lon="4.31062">
        <ele>117.1</ele>
        <time>2014-12-29T09:44:14Z</time>
      </trkpt>
      <trkpt lat="50.36824" lon="4.31067">
        <ele>117.36</ele>
        <time>2014-12-29T09:44:24Z</time>
      </trkpt>
      <trkpt lat="50.36811" lon="4.31104">
        <ele>117.4</ele>
        <time>2014-12-29T09:44:41Z</time>
      </trkpt>
      <trkpt lat="50.36838" lon="4.31145">
        <ele>117.83</ele>
        <time>2014-12-29T09:44:59Z</time>
      </trkpt>
      <trkpt lat="50.36864" lon="4.3119">
        <ele>118.6</ele>
        <time>2014-12-29T09:45:16Z</time>
      </trkpt>
      <trkpt lat="50.36882" lon="4.31252">
        <ele>119.43</ele>
        <time>2014-12-29T09:45:33Z</time>
      </trkpt>
      <trkpt lat="50.36896" lon="4.31333">
        <ele>120.5</ele>
        <time>2014-12-29T09:45:52Z</time>
      </trkpt>
      <trkpt lat="50.3691" lon="4.31389">
        <ele>123.63</ele>
        <time>2014-12-29T09:46:07Z</time>
      </trkpt>
      <trkpt lat="50.36923" lon="4.31446">
        <ele>126.67</ele>
        <time>2014-12-29T09:46:21Z</time>
      </trkpt>
      <trkpt lat="50.36938" lon="4.3153">
        <ele>129.71</ele>
        <time>2014-12-29T09:46:40Z</time>
      </trkpt>
      <trkpt lat="50.36925" lon="4.31566">
        <ele>131.18</ele>
        <time>2014-12-29T09:46:51Z</time>
      </trkpt>
      <trkpt lat="50.3689" lon="4.316">
        <ele>134.23</ele>
        <time>2014-12-29T09:47:07Z</time>
      </trkpt>
      <trkpt lat="50.36863" lon="4.31628">
        <ele>137.45</ele>
        <time>2014-12-29T09:47:19Z</time>
      </trkpt>
      <trkpt lat="50.36831" lon="4.31658">
        <ele>140.66</ele>
        <time>2014-12-29T09:47:33Z</time>
      </trkpt>
      <trkpt lat="50.36801" lon="4.31685">
        <ele>143.7</ele>
        <time>2014-12-29T09:47:47Z</time>
      </trkpt>
      <trkpt lat="50.36764" lon="4.3172">
        <ele>146.81</ele>
        <time>2014-12-29T09:48:03Z</time>
      </trkpt>
      <trkpt lat="50.36734" lon="4.31748">
        <ele>149.96</ele>
        <time>2014-12-29T09:48:15Z</time>
      </trkpt>
      <trkpt lat="50.36702" lon="4.31777">
        <ele>153.18</ele>
        <time>2014-12-29T09:48:28Z</time>
      </trkpt>
      <trkpt lat="50.36672" lon="4.31802">
        <ele>156.3</ele>
        <time>2014-12-29T09:48:40Z</time>
      </trkpt>
      <trkpt lat="50.36636" lon="4.31836">
        <ele>159.39</ele>
        <time>2014-12-29T09:48:52Z</time>
      </trkpt>
      <trkpt lat="50.36614" lon="4.31858">
        <ele>161.21</ele>
        <time>2014-12-29T09:48:58Z</time>
      </trkpt>
      <trkpt lat="50.36606" lon="4.31866">
        <ele>161.72</ele>
        <time>2014-12-29T09:49:00Z</time>
      </trkpt>
      <trkpt lat="50.36603" lon="4.3187">
        <ele>161.99</ele>
        <time>2014-12-29T09:49:01Z</time>
      </trkpt>
      <trkpt lat="50.36555" lon="4.31916">
        <ele>165.16</ele>
        <time>2014-12-29T09:49:13Z</time>
      </trkpt>
      <trkpt lat="50.36551" lon="4.31919">
        <ele>165.36</ele>
        <time>2014-12-29T09:49:14Z</time>
      </trkpt>
      <trkpt lat="50.36547" lon="4.31923">
        <ele>165.58</ele>
        <time>2014-12-29T09:49:15Z</time>
      </trkpt>
      <trkpt lat="50.36485" lon="4.31977">
        <ele>168.61</ele>
        <time>2014-12-29T09:49:30Z</time>
      </trkpt>
      <trkpt lat="50.36417" lon="4.32047">
        <ele>171.13</ele>
        <time>2014-12-29T09:49:46Z</time>
      </trkpt>
      <trkpt lat="50.36344" lon="4.32116">
        <ele>171.71</ele>
        <time>2014-12-29T09:50:02Z</time>
      </trkpt>
      <trkpt lat="50.36278" lon="4.32183">
        <ele>173.12</ele>
        <time>2014-12-29T09:50:16Z</time>
      </trkpt>
      <trkpt lat="50.36205" lon="4.32252">
        <ele>174.1</ele>
        <time>2014-12-29T09:50:31Z</time>
      </trkpt>
      <trkpt lat="50.36127" lon="4.32329">
        <ele>175.44</ele>
        <time>2014-12-29T09:50:50Z</time>
      </trkpt>
      <trkpt lat="50.36124" lon="4.32333">
        <ele>175.54</ele>
        <time>2014-12-29T09:50:51Z</time>
      </trkpt>
      <trkpt lat="50.3612" lon="4.32337">
        <ele>175.63</ele>
        <time>2014-12-29T09:50:52Z</time>
      </trkpt>
      <trkpt lat="50.36043" lon="4.32411">
        <ele>177</ele>
        <time>2014-12-29T09:51:11Z</time>
      </trkpt>
      <trkpt lat="50.35956" lon="4.32494">
        <ele>177.95</ele>
        <time>2014-12-29T09:51:29Z</time>
      </trkpt>
      <trkpt lat="50.35862" lon="4.32585">
        <ele>179.47</ele>
        <time>2014-12-29T09:51:47Z</time>
      </trkpt>
      <trkpt lat="50.3575" lon="4.32692">
        <ele>181.2</ele>
        <time>2014-12-29T09:52:08Z</time>
      </trkpt>
      <trkpt lat="50.35745" lon="4.32696">
        <ele>181.22</ele>
        <time>2014-12-29T09:52:09Z</time>
      </trkpt>
      <trkpt lat="50.35729" lon="4.32709">
        <ele>181.21</ele>
        <time>2014-12-29T09:52:13Z</time>
      </trkpt>
      <trkpt lat="50.35725" lon="4.32713">
        <ele>181.23</ele>
        <time>2014-12-29T09:52:14Z</time>
      </trkpt>
      <trkpt lat="50.35691" lon="4.32743">
        <ele>181.23</ele>
        <time>2014-12-29T09:52:22Z</time>
      </trkpt>
      <trkpt lat="50.35687" lon="4.32744">
        <ele>181.2</ele>
        <time>2014-12-29T09:52:23Z</time>
      </trkpt>
      <trkpt lat="50.35684" lon="4.32744">
        <ele>181.19</ele>
        <time>2014-12-29T09:52:24Z</time>
      </trkpt>
      <trkpt lat="50.3568" lon="4.32744">
        <ele>181.18</ele>
        <time>2014-12-29T09:52:25Z</time>
      </trkpt>
      <trkpt lat="50.35678" lon="4.32742">
        <ele>181.18</ele>
        <time>2014-12-29T09:52:26Z</time>
      </trkpt>
      <trkpt lat="50.35676" lon="4.3274">
        <ele>181.19</ele>
        <time>2014-12-29T09:52:27Z</time>
      </trkpt>
      <trkpt lat="50.35674" lon="4.32739">
        <ele>181.21</ele>
        <time>2014-12-29T09:52:28Z</time>
      </trkpt>
      <trkpt lat="50.3567" lon="4.32736">
        <ele>181.38</ele>
        <time>2014-12-29T09:52:32Z</time>
      </trkpt>
      <trkpt lat="50.3567" lon="4.32738">
        <ele>181.43</ele>
        <time>2014-12-29T09:52:33Z</time>
      </trkpt>
      <trkpt lat="50.3567" lon="4.3274">
        <ele>181.47</ele>
        <time>2014-12-29T09:52:34Z</time>
      </trkpt>
      <trkpt lat="50.35671" lon="4.32743">
        <ele>181.49</ele>
        <time>2014-12-29T09:52:35Z</time>
      </trkpt>
      <trkpt lat="50.35672" lon="4.32745">
        <ele>181.48</ele>
        <time>2014-12-29T09:52:36Z</time>
      </trkpt>
      <trkpt lat="50.35673" lon="4.32748">
        <ele>181.44</ele>
        <time>2014-12-29T09:52:37Z</time>
      </trkpt>
      <trkpt lat="50.35674" lon="4.32751">
        <ele>181.41</ele>
        <time>2014-12-29T09:52:38Z</time>
      </trkpt>
      <trkpt lat="50.35675" lon="4.32753">
        <ele>181.39</ele>
        <time>2014-12-29T09:52:39Z</time>
      </trkpt>
      <trkpt lat="50.35676" lon="4.32755">
        <ele>181.37</ele>
        <time>2014-12-29T09:52:40Z</time>
      </trkpt>
      <trkpt lat="50.35676" lon="4.32756">
        <ele>181.34</ele>
        <time>2014-12-29T09:52:41Z</time>
      </trkpt>
      <trkpt lat="50.35678" lon="4.32757">
        <ele>181.3</ele>
        <time>2014-12-29T09:52:42Z</time>
      </trkpt>
      <trkpt lat="50.35679" lon="4.32757">
        <ele>181.27</ele>
        <time>2014-12-29T09:52:43Z</time>
      </trkpt>
      <trkpt lat="50.35681" lon="4.32756">
        <ele>181.24</ele>
        <time>2014-12-29T09:52:44Z</time>
      </trkpt>
      <trkpt lat="50.35682" lon="4.32754">
        <ele>181.19</ele>
        <time>2014-12-29T09:52:45Z</time>
      </trkpt>
      <trkpt lat="50.35683" lon="4.32751">
        <ele>181.14</ele>
        <time>2014-12-29T09:52:46Z</time>
      </trkpt>
      <trkpt lat="50.35684" lon="4.32748">
        <ele>181.03</ele>
        <time>2014-12-29T09:52:47Z</time>
      </trkpt>
      <trkpt lat="50.35684" lon="4.32745">
        <ele>180.98</ele>
        <time>2014-12-29T09:52:48Z</time>
      </trkpt>
      <trkpt lat="50.35683" lon="4.32743">
        <ele>180.95</ele>
        <time>2014-12-29T09:52:49Z</time>
      </trkpt>
      <trkpt lat="50.35682" lon="4.32742">
        <ele>180.99</ele>
        <time>2014-12-29T09:52:50Z</time>
      </trkpt>
      <trkpt lat="50.3568" lon="4.32741">
        <ele>181.04</ele>
        <time>2014-12-29T09:52:51Z</time>
      </trkpt>
      <trkpt lat="50.35679" lon="4.32741">
        <ele>181.09</ele>
        <time>2014-12-29T09:52:52Z</time>
      </trkpt>
      <trkpt lat="50.35677" lon="4.3274">
        <ele>181.17</ele>
        <time>2014-12-29T09:52:53Z</time>
      </trkpt>
      <trkpt lat="50.35676" lon="4.3274">
        <ele>181.23</ele>
        <time>2014-12-29T09:52:54Z</time>
      </trkpt>
      <trkpt lat="50.35672" lon="4.32739">
        <ele>181.32</ele>
        <time>2014-12-29T09:52:56Z</time>
      </trkpt>
      <trkpt lat="50.35669" lon="4.3274">
        <ele>181.37</ele>
        <time>2014-12-29T09:52:58Z</time>
      </trkpt>
      <trkpt lat="50.35668" lon="4.32736">
        <ele>181.37</ele>
        <time>2014-12-29T09:53:05Z</time>
      </trkpt>
      <trkpt lat="50.35665" lon="4.32729">
        <ele>181.78</ele>
        <time>2014-12-29T09:54:10Z</time>
      </trkpt>
      <trkpt lat="50.35664" lon="4.32727">
        <ele>181.78</ele>
        <time>2014-12-29T09:54:11Z</time>
      </trkpt>
      <trkpt lat="50.35663" lon="4.32724">
        <ele>181.8</ele>
        <time>2014-12-29T09:54:12Z</time>
      </trkpt>
      <trkpt lat="50.35662" lon="4.32721">
        <ele>181.82</ele>
        <time>2014-12-29T09:54:13Z</time>
      </trkpt>
      <trkpt lat="50.35661" lon="4.32718">
        <ele>181.85</ele>
        <time>2014-12-29T09:54:14Z</time>
      </trkpt>
      <trkpt lat="50.35659" lon="4.32715">
        <ele>181.9</ele>
        <time>2014-12-29T09:54:15Z</time>
      </trkpt>
      <trkpt lat="50.35614" lon="4.32657">
        <ele>182.99</ele>
        <time>2014-12-29T09:54:32Z</time>
      </trkpt>
      <trkpt lat="50.35544" lon="4.32593">
        <ele>183.45</ele>
        <time>2014-12-29T09:54:54Z</time>
      </trkpt>
      <trkpt lat="50.35461" lon="4.32515">
        <ele>185.39</ele>
        <time>2014-12-29T09:55:19Z</time>
      </trkpt>
      <trkpt lat="50.35396" lon="4.32448">
        <ele>186.45</ele>
        <time>2014-12-29T09:55:39Z</time>
      </trkpt>
      <trkpt lat="50.35342" lon="4.3241">
        <ele>187.57</ele>
        <time>2014-12-29T09:55:53Z</time>
      </trkpt>
      <trkpt lat="50.35286" lon="4.32382">
        <ele>187.75</ele>
        <time>2014-12-29T09:56:05Z</time>
      </trkpt>
      <trkpt lat="50.35282" lon="4.32378">
        <ele>187.84</ele>
        <time>2014-12-29T09:56:06Z</time>
      </trkpt>
      <trkpt lat="50.35275" lon="4.32369">
        <ele>188.05</ele>
        <time>2014-12-29T09:56:08Z</time>
      </trkpt>
      <trkpt lat="50.35272" lon="4.32364">
        <ele>188.1</ele>
        <time>2014-12-29T09:56:09Z</time>
      </trkpt>
      <trkpt lat="50.35206" lon="4.32278">
        <ele>189.24</ele>
        <time>2014-12-29T09:56:28Z</time>
      </trkpt>
      <trkpt lat="50.35203" lon="4.32272">
        <ele>189.25</ele>
        <time>2014-12-29T09:56:29Z</time>
      </trkpt>
      <trkpt lat="50.352" lon="4.32266">
        <ele>189.26</ele>
        <time>2014-12-29T09:56:30Z</time>
      </trkpt>
      <trkpt lat="50.35198" lon="4.3226">
        <ele>189.28</ele>
        <time>2014-12-29T09:56:31Z</time>
      </trkpt>
      <trkpt lat="50.35197" lon="4.32253">
        <ele>189.31</ele>
        <time>2014-12-29T09:56:32Z</time>
      </trkpt>
      <trkpt lat="50.35195" lon="4.32246">
        <ele>189.32</ele>
        <time>2014-12-29T09:56:33Z</time>
      </trkpt>
      <trkpt lat="50.3519" lon="4.32225">
        <ele>189.41</ele>
        <time>2014-12-29T09:56:36Z</time>
      </trkpt>
      <trkpt lat="50.35185" lon="4.32212">
        <ele>189.49</ele>
        <time>2014-12-29T09:56:38Z</time>
      </trkpt>
      <trkpt lat="50.35182" lon="4.32206">
        <ele>189.52</ele>
        <time>2014-12-29T09:56:39Z</time>
      </trkpt>
      <trkpt lat="50.35179" lon="4.322">
        <ele>189.55</ele>
        <time>2014-12-29T09:56:40Z</time>
      </trkpt>
      <trkpt lat="50.35176" lon="4.32194">
        <ele>189.57</ele>
        <time>2014-12-29T09:56:41Z</time>
      </trkpt>
      <trkpt lat="50.35172" lon="4.32189">
        <ele>189.58</ele>
        <time>2014-12-29T09:56:42Z</time>
      </trkpt>
      <trkpt lat="50.35168" lon="4.32185">
        <ele>189.59</ele>
        <time>2014-12-29T09:56:43Z</time>
      </trkpt>
      <trkpt lat="50.35164" lon="4.32181">
        <ele>189.6</ele>
        <time>2014-12-29T09:56:44Z</time>
      </trkpt>
      <trkpt lat="50.35159" lon="4.32176">
        <ele>189.59</ele>
        <time>2014-12-29T09:56:45Z</time>
      </trkpt>
      <trkpt lat="50.35079" lon="4.32101">
        <ele>190.1</ele>
        <time>2014-12-29T09:57:03Z</time>
      </trkpt>
      <trkpt lat="50.34992" lon="4.32011">
        <ele>190.98</ele>
        <time>2014-12-29T09:57:22Z</time>
      </trkpt>
      <trkpt lat="50.34916" lon="4.31937">
        <ele>190.92</ele>
        <time>2014-12-29T09:57:38Z</time>
      </trkpt>
      <trkpt lat="50.34898" lon="4.31911">
        <ele>191.52</ele>
        <time>2014-12-29T09:57:48Z</time>
      </trkpt>
      <trkpt lat="50.34898" lon="4.31911">
        <ele>191.74</ele>
        <time>2014-12-29T09:57:51Z</time>
      </trkpt>
      <trkpt lat="50.34891" lon="4.31903">
        <ele>191.96</ele>
        <time>2014-12-29T09:57:58Z</time>
      </trkpt>
      <trkpt lat="50.34854" lon="4.31858">
        <ele>191.97</ele>
        <time>2014-12-29T09:58:11Z</time>
      </trkpt>
      <trkpt lat="50.34813" lon="4.31822">
        <ele>192.54</ele>
        <time>2014-12-29T09:58:22Z</time>
      </trkpt>
      <trkpt lat="50.34748" lon="4.31771">
        <ele>193.21</ele>
        <time>2014-12-29T09:58:39Z</time>
      </trkpt>
      <trkpt lat="50.34697" lon="4.31694">
        <ele>193.57</ele>
        <time>2014-12-29T09:58:56Z</time>
      </trkpt>
      <trkpt lat="50.34671" lon="4.31653">
        <ele>192.99</ele>
        <time>2014-12-29T09:59:05Z</time>
      </trkpt>
      <trkpt lat="50.34592" lon="4.31581">
        <ele>192.1</ele>
        <time>2014-12-29T09:59:24Z</time>
      </trkpt>
      <trkpt lat="50.34512" lon="4.315">
        <ele>191.28</ele>
        <time>2014-12-29T09:59:43Z</time>
      </trkpt>
      <trkpt lat="50.34425" lon="4.31427">
        <ele>190.58</ele>
        <time>2014-12-29T10:00:03Z</time>
      </trkpt>
      <trkpt lat="50.34363" lon="4.31383">
        <ele>189.91</ele>
        <time>2014-12-29T10:00:18Z</time>
      </trkpt>
      <trkpt lat="50.34348" lon="4.31367">
        <ele>189.85</ele>
        <time>2014-12-29T10:00:22Z</time>
      </trkpt>
      <trkpt lat="50.34344" lon="4.31362">
        <ele>189.85</ele>
        <time>2014-12-29T10:00:23Z</time>
      </trkpt>
      <trkpt lat="50.34341" lon="4.31357">
        <ele>189.84</ele>
        <time>2014-12-29T10:00:24Z</time>
      </trkpt>
      <trkpt lat="50.34336" lon="4.31346">
        <ele>189.77</ele>
        <time>2014-12-29T10:00:26Z</time>
      </trkpt>
      <trkpt lat="50.34288" lon="4.31246">
        <ele>188.77</ele>
        <time>2014-12-29T10:00:42Z</time>
      </trkpt>
      <trkpt lat="50.34285" lon="4.31239">
        <ele>188.77</ele>
        <time>2014-12-29T10:00:43Z</time>
      </trkpt>
      <trkpt lat="50.34283" lon="4.31232">
        <ele>188.63</ele>
        <time>2014-12-29T10:00:44Z</time>
      </trkpt>
      <trkpt lat="50.34281" lon="4.31225">
        <ele>188.52</ele>
        <time>2014-12-29T10:00:45Z</time>
      </trkpt>
      <trkpt lat="50.34279" lon="4.31217">
        <ele>188.42</ele>
        <time>2014-12-29T10:00:46Z</time>
      </trkpt>
      <trkpt lat="50.34278" lon="4.31209">
        <ele>188.33</ele>
        <time>2014-12-29T10:00:47Z</time>
      </trkpt>
      <trkpt lat="50.34277" lon="4.31201">
        <ele>188.23</ele>
        <time>2014-12-29T10:00:48Z</time>
      </trkpt>
      <trkpt lat="50.34273" lon="4.31153">
        <ele>187.53</ele>
        <time>2014-12-29T10:00:54Z</time>
      </trkpt>
      <trkpt lat="50.34271" lon="4.31145">
        <ele>187.34</ele>
        <time>2014-12-29T10:00:55Z</time>
      </trkpt>
      <trkpt lat="50.34234" lon="4.31074">
        <ele>185.45</ele>
        <time>2014-12-29T10:01:06Z</time>
      </trkpt>
      <trkpt lat="50.34162" lon="4.31004">
        <ele>183.6</ele>
        <time>2014-12-29T10:01:22Z</time>
      </trkpt>
      <trkpt lat="50.3416" lon="4.30997">
        <ele>183.44</ele>
        <time>2014-12-29T10:01:23Z</time>
      </trkpt>
      <trkpt lat="50.34158" lon="4.30991">
        <ele>183.28</ele>
        <time>2014-12-29T10:01:24Z</time>
      </trkpt>
      <trkpt lat="50.34158" lon="4.30984">
        <ele>183.12</ele>
        <time>2014-12-29T10:01:25Z</time>
      </trkpt>
      <trkpt lat="50.34158" lon="4.30977">
        <ele>182.97</ele>
        <time>2014-12-29T10:01:26Z</time>
      </trkpt>
      <trkpt lat="50.34159" lon="4.30971">
        <ele>182.85</ele>
        <time>2014-12-29T10:01:27Z</time>
      </trkpt>
      <trkpt lat="50.34159" lon="4.30964">
        <ele>182.76</ele>
        <time>2014-12-29T10:01:28Z</time>
      </trkpt>
      <trkpt lat="50.34176" lon="4.30833">
        <ele>181.85</ele>
        <time>2014-12-29T10:01:45Z</time>
      </trkpt>
      <trkpt lat="50.34179" lon="4.30799">
        <ele>181.7</ele>
        <time>2014-12-29T10:01:49Z</time>
      </trkpt>
      <trkpt lat="50.34175" lon="4.30652">
        <ele>179.35</ele>
        <time>2014-12-29T10:02:05Z</time>
      </trkpt>
      <trkpt lat="50.34178" lon="4.30506">
        <ele>176.44</ele>
        <time>2014-12-29T10:02:20Z</time>
      </trkpt>
      <trkpt lat="50.34166" lon="4.30386">
        <ele>175.19</ele>
        <time>2014-12-29T10:02:35Z</time>
      </trkpt>
      <trkpt lat="50.34153" lon="4.30298">
        <ele>174.81</ele>
        <time>2014-12-29T10:02:48Z</time>
      </trkpt>
      <trkpt lat="50.34153" lon="4.30295">
        <ele>174.85</ele>
        <time>2014-12-29T10:02:49Z</time>
      </trkpt>
      <trkpt lat="50.3416" lon="4.30295">
        <ele>174.77</ele>
        <time>2014-12-29T10:02:52Z</time>
      </trkpt>
      <trkpt lat="50.34163" lon="4.30297">
        <ele>174.7</ele>
        <time>2014-12-29T10:02:53Z</time>
      </trkpt>
      <trkpt lat="50.34178" lon="4.30294">
        <ele>174.14</ele>
        <time>2014-12-29T10:02:58Z</time>
      </trkpt>
      <trkpt lat="50.34205" lon="4.30255">
        <ele>172.84</ele>
        <time>2014-12-29T10:03:06Z</time>
      </trkpt>
      <trkpt lat="50.34211" lon="4.30241">
        <ele>172.56</ele>
        <time>2014-12-29T10:03:09Z</time>
      </trkpt>
      <trkpt lat="50.34216" lon="4.30229">
        <ele>172.45</ele>
        <time>2014-12-29T10:03:11Z</time>
      </trkpt>
      <trkpt lat="50.34223" lon="4.30214">
        <ele>172.02</ele>
        <time>2014-12-29T10:03:13Z</time>
      </trkpt>
      <trkpt lat="50.34242" lon="4.30178">
        <ele>170.89</ele>
        <time>2014-12-29T10:03:19Z</time>
      </trkpt>
      <trkpt lat="50.34273" lon="4.30104">
        <ele>170.33</ele>
        <time>2014-12-29T10:03:29Z</time>
      </trkpt>
      <trkpt lat="50.34286" lon="4.30072">
        <ele>169.71</ele>
        <time>2014-12-29T10:03:33Z</time>
      </trkpt>
      <trkpt lat="50.34297" lon="4.3004">
        <ele>169.24</ele>
        <time>2014-12-29T10:03:37Z</time>
      </trkpt>
      <trkpt lat="50.34303" lon="4.30023">
        <ele>169.01</ele>
        <time>2014-12-29T10:03:39Z</time>
      </trkpt>
      <trkpt lat="50.34323" lon="4.29992">
        <ele>168.19</ele>
        <time>2014-12-29T10:03:44Z</time>
      </trkpt>
      <trkpt lat="50.3434" lon="4.29959">
        <ele>167.03</ele>
        <time>2014-12-29T10:03:49Z</time>
      </trkpt>
      <trkpt lat="50.34345" lon="4.29939">
        <ele>166.61</ele>
        <time>2014-12-29T10:03:52Z</time>
      </trkpt>
      <trkpt lat="50.34348" lon="4.29906">
        <ele>166.06</ele>
        <time>2014-12-29T10:03:56Z</time>
      </trkpt>
      <trkpt lat="50.34355" lon="4.29875">
        <ele>165.21</ele>
        <time>2014-12-29T10:04:01Z</time>
      </trkpt>
      <trkpt lat="50.34337" lon="4.2984">
        <ele>164.2</ele>
        <time>2014-12-29T10:04:22Z</time>
      </trkpt>
      <trkpt lat="50.34339" lon="4.29838">
        <ele>164.11</ele>
        <time>2014-12-29T10:04:32Z</time>
      </trkpt>
      <trkpt lat="50.34313" lon="4.29827">
        <ele>163.79</ele>
        <time>2014-12-29T10:04:50Z</time>
      </trkpt>
      <trkpt lat="50.34267" lon="4.29814">
        <ele>163.54</ele>
        <time>2014-12-29T10:05:05Z</time>
      </trkpt>
      <trkpt lat="50.34205" lon="4.29828">
        <ele>165.73</ele>
        <time>2014-12-29T10:05:23Z</time>
      </trkpt>
      <trkpt lat="50.34166" lon="4.29813">
        <ele>168.58</ele>
        <time>2014-12-29T10:05:36Z</time>
      </trkpt>
      <trkpt lat="50.34163" lon="4.29804">
        <ele>168.81</ele>
        <time>2014-12-29T10:05:38Z</time>
      </trkpt>
      <trkpt lat="50.34163" lon="4.298">
        <ele>168.89</ele>
        <time>2014-12-29T10:05:39Z</time>
      </trkpt>
      <trkpt lat="50.34163" lon="4.29794">
        <ele>168.96</ele>
        <time>2014-12-29T10:05:40Z</time>
      </trkpt>
      <trkpt lat="50.34164" lon="4.29789">
        <ele>169.01</ele>
        <time>2014-12-29T10:05:41Z</time>
      </trkpt>
      <trkpt lat="50.34164" lon="4.29783">
        <ele>169.05</ele>
        <time>2014-12-29T10:05:42Z</time>
      </trkpt>
      <trkpt lat="50.34164" lon="4.29778">
        <ele>169.08</ele>
        <time>2014-12-29T10:05:43Z</time>
      </trkpt>
      <trkpt lat="50.34149" lon="4.29692">
        <ele>168.24</ele>
        <time>2014-12-29T10:05:59Z</time>
      </trkpt>
      <trkpt lat="50.34124" lon="4.29622">
        <ele>167.5</ele>
        <time>2014-12-29T10:06:14Z</time>
      </trkpt>
      <trkpt lat="50.34126" lon="4.29556">
        <ele>166.42</ele>
        <time>2014-12-29T10:06:26Z</time>
      </trkpt>
      <trkpt lat="50.34121" lon="4.29513">
        <ele>165.61</ele>
        <time>2014-12-29T10:06:37Z</time>
      </trkpt>
      <trkpt lat="50.34119" lon="4.29514">
        <ele>165.52</ele>
        <time>2014-12-29T10:06:40Z</time>
      </trkpt>
      <trkpt lat="50.34124" lon="4.2954">
        <ele>165.88</ele>
        <time>2014-12-29T10:06:50Z</time>
      </trkpt>
      <trkpt lat="50.34126" lon="4.29542">
        <ele>165.88</ele>
        <time>2014-12-29T10:06:51Z</time>
      </trkpt>
      <trkpt lat="50.3413" lon="4.29543">
        <ele>165.87</ele>
        <time>2014-12-29T10:06:54Z</time>
      </trkpt>
      <trkpt lat="50.34131" lon="4.29541">
        <ele>165.85</ele>
        <time>2014-12-29T10:06:55Z</time>
      </trkpt>
      <trkpt lat="50.34132" lon="4.29538">
        <ele>165.82</ele>
        <time>2014-12-29T10:06:56Z</time>
      </trkpt>
      <trkpt lat="50.34135" lon="4.29473">
        <ele>163.05</ele>
        <time>2014-12-29T10:07:06Z</time>
      </trkpt>
      <trkpt lat="50.34137" lon="4.29451">
        <ele>161.93</ele>
        <time>2014-12-29T10:07:09Z</time>
      </trkpt>
      <trkpt lat="50.34146" lon="4.29427">
        <ele>158.65</ele>
        <time>2014-12-29T10:07:17Z</time>
      </trkpt>
      <trkpt lat="50.34148" lon="4.29425">
        <ele>158.38</ele>
        <time>2014-12-29T10:07:18Z</time>
      </trkpt>
      <trkpt lat="50.34147" lon="4.29413">
        <ele>156.75</ele>
        <time>2014-12-29T10:07:22Z</time>
      </trkpt>
      <trkpt lat="50.34145" lon="4.29404">
        <ele>155.68</ele>
        <time>2014-12-29T10:07:24Z</time>
      </trkpt>
      <trkpt lat="50.34136" lon="4.29379">
        <ele>151.37</ele>
        <time>2014-12-29T10:07:29Z</time>
      </trkpt>
      <trkpt lat="50.34128" lon="4.29356">
        <ele>147.92</ele>
        <time>2014-12-29T10:07:33Z</time>
      </trkpt>
      <trkpt lat="50.34121" lon="4.29332">
        <ele>144.3</ele>
        <time>2014-12-29T10:07:37Z</time>
      </trkpt>
      <trkpt lat="50.34116" lon="4.29309">
        <ele>139.4</ele>
        <time>2014-12-29T10:07:41Z</time>
      </trkpt>
      <trkpt lat="50.34115" lon="4.29303">
        <ele>139.4</ele>
        <time>2014-12-29T10:07:42Z</time>
      </trkpt>
      <trkpt lat="50.34109" lon="4.29281">
        <ele>135.41</ele>
        <time>2014-12-29T10:07:46Z</time>
      </trkpt>
      <trkpt lat="50.34108" lon="4.29276">
        <ele>133.39</ele>
        <time>2014-12-29T10:07:47Z</time>
      </trkpt>
      <trkpt lat="50.34105" lon="4.29251">
        <ele>130.67</ele>
        <time>2014-12-29T10:07:50Z</time>
      </trkpt>
      <trkpt lat="50.34099" lon="4.29213">
        <ele>126.63</ele>
        <time>2014-12-29T10:07:54Z</time>
      </trkpt>
      <trkpt lat="50.34092" lon="4.2917">
        <ele>123.56</ele>
        <time>2014-12-29T10:07:57Z</time>
      </trkpt>
      <trkpt lat="50.34084" lon="4.29124">
        <ele>119.89</ele>
        <time>2014-12-29T10:08:01Z</time>
      </trkpt>
      <trkpt lat="50.3408" lon="4.29108">
        <ele>118.74</ele>
        <time>2014-12-29T10:08:03Z</time>
      </trkpt>
      <trkpt lat="50.34079" lon="4.291">
        <ele>118.28</ele>
        <time>2014-12-29T10:08:04Z</time>
      </trkpt>
      <trkpt lat="50.34078" lon="4.29092">
        <ele>117.93</ele>
        <time>2014-12-29T10:08:05Z</time>
      </trkpt>
      <trkpt lat="50.34064" lon="4.28996">
        <ele>114.35</ele>
        <time>2014-12-29T10:08:18Z</time>
      </trkpt>
      <trkpt lat="50.34059" lon="4.2895">
        <ele>112.47</ele>
        <time>2014-12-29T10:08:24Z</time>
      </trkpt>
      <trkpt lat="50.34058" lon="4.28941">
        <ele>112.14</ele>
        <time>2014-12-29T10:08:25Z</time>
      </trkpt>
      <trkpt lat="50.34055" lon="4.28879">
        <ele>109.99</ele>
        <time>2014-12-29T10:08:32Z</time>
      </trkpt>
      <trkpt lat="50.34053" lon="4.28858">
        <ele>109.46</ele>
        <time>2014-12-29T10:08:35Z</time>
      </trkpt>
      <trkpt lat="50.34048" lon="4.28832">
        <ele>109.32</ele>
        <time>2014-12-29T10:08:39Z</time>
      </trkpt>
      <trkpt lat="50.34047" lon="4.28826">
        <ele>109.32</ele>
        <time>2014-12-29T10:08:40Z</time>
      </trkpt>
      <trkpt lat="50.34041" lon="4.28749">
        <ele>111.46</ele>
        <time>2014-12-29T10:08:55Z</time>
      </trkpt>
      <trkpt lat="50.34049" lon="4.28694">
        <ele>111.08</ele>
        <time>2014-12-29T10:09:07Z</time>
      </trkpt>
      <trkpt lat="50.34055" lon="4.28667">
        <ele>109.11</ele>
        <time>2014-12-29T10:09:18Z</time>
      </trkpt>
      <trkpt lat="50.34056" lon="4.28665">
        <ele>108.97</ele>
        <time>2014-12-29T10:09:19Z</time>
      </trkpt>
      <trkpt lat="50.34057" lon="4.28663">
        <ele>108.84</ele>
        <time>2014-12-29T10:09:20Z</time>
      </trkpt>
      <trkpt lat="50.34058" lon="4.2866">
        <ele>108.73</ele>
        <time>2014-12-29T10:09:21Z</time>
      </trkpt>
      <trkpt lat="50.34058" lon="4.28657">
        <ele>108.66</ele>
        <time>2014-12-29T10:09:22Z</time>
      </trkpt>
      <trkpt lat="50.34061" lon="4.28647">
        <ele>108.58</ele>
        <time>2014-12-29T10:09:25Z</time>
      </trkpt>
      <trkpt lat="50.34061" lon="4.28644">
        <ele>108.58</ele>
        <time>2014-12-29T10:09:26Z</time>
      </trkpt>
      <trkpt lat="50.3406" lon="4.28642">
        <ele>108.59</ele>
        <time>2014-12-29T10:09:27Z</time>
      </trkpt>
      <trkpt lat="50.34059" lon="4.2864">
        <ele>108.64</ele>
        <time>2014-12-29T10:09:28Z</time>
      </trkpt>
      <trkpt lat="50.34058" lon="4.28637">
        <ele>108.71</ele>
        <time>2014-12-29T10:09:29Z</time>
      </trkpt>
      <trkpt lat="50.34058" lon="4.28635">
        <ele>108.8</ele>
        <time>2014-12-29T10:09:30Z</time>
      </trkpt>
      <trkpt lat="50.34058" lon="4.28632">
        <ele>108.87</ele>
        <time>2014-12-29T10:09:31Z</time>
      </trkpt>
      <trkpt lat="50.34057" lon="4.2863">
        <ele>108.93</ele>
        <time>2014-12-29T10:09:32Z</time>
      </trkpt>
      <trkpt lat="50.34059" lon="4.28608">
        <ele>109.7</ele>
        <time>2014-12-29T10:09:42Z</time>
      </trkpt>
      <trkpt lat="50.34067" lon="4.28583">
        <ele>108.29</ele>
        <time>2014-12-29T10:09:57Z</time>
      </trkpt>
      <trkpt lat="50.34072" lon="4.28567">
        <ele>106.84</ele>
        <time>2014-12-29T10:10:47Z</time>
      </trkpt>
      <trkpt lat="50.34089" lon="4.28511">
        <ele>104.57</ele>
        <time>2014-12-29T10:11:00Z</time>
      </trkpt>
      <trkpt lat="50.34105" lon="4.28425">
        <ele>103.87</ele>
        <time>2014-12-29T10:11:15Z</time>
      </trkpt>
      <trkpt lat="50.34109" lon="4.2834">
        <ele>104.05</ele>
        <time>2014-12-29T10:11:30Z</time>
      </trkpt>
      <trkpt lat="50.3411" lon="4.28317">
        <ele>104.09</ele>
        <time>2014-12-29T10:11:34Z</time>
      </trkpt>
      <trkpt lat="50.34113" lon="4.28245">
        <ele>107.27</ele>
        <time>2014-12-29T10:11:46Z</time>
      </trkpt>
      <trkpt lat="50.34119" lon="4.2822">
        <ele>109.2</ele>
        <time>2014-12-29T10:11:52Z</time>
      </trkpt>
      <trkpt lat="50.34121" lon="4.28219">
        <ele>109.51</ele>
        <time>2014-12-29T10:11:53Z</time>
      </trkpt>
      <trkpt lat="50.34124" lon="4.28217">
        <ele>109.75</ele>
        <time>2014-12-29T10:11:54Z</time>
      </trkpt>
      <trkpt lat="50.34126" lon="4.28217">
        <ele>109.95</ele>
        <time>2014-12-29T10:11:55Z</time>
      </trkpt>
      <trkpt lat="50.34129" lon="4.28217">
        <ele>110.07</ele>
        <time>2014-12-29T10:11:56Z</time>
      </trkpt>
      <trkpt lat="50.34133" lon="4.28217">
        <ele>110.07</ele>
        <time>2014-12-29T10:11:57Z</time>
      </trkpt>
      <trkpt lat="50.34144" lon="4.28216">
        <ele>108.49</ele>
        <time>2014-12-29T10:12:02Z</time>
      </trkpt>
      <trkpt lat="50.34145" lon="4.28213">
        <ele>107.84</ele>
        <time>2014-12-29T10:12:03Z</time>
      </trkpt>
      <trkpt lat="50.34145" lon="4.2821">
        <ele>107.58</ele>
        <time>2014-12-29T10:12:04Z</time>
      </trkpt>
      <trkpt lat="50.3415" lon="4.2816">
        <ele>106.74</ele>
        <time>2014-12-29T10:12:17Z</time>
      </trkpt>
      <trkpt lat="50.34144" lon="4.28097">
        <ele>107.76</ele>
        <time>2014-12-29T10:12:31Z</time>
      </trkpt>
      <trkpt lat="50.34156" lon="4.2805">
        <ele>108.04</ele>
        <time>2014-12-29T10:12:41Z</time>
      </trkpt>
      <trkpt lat="50.34189" lon="4.28012">
        <ele>108.62</ele>
        <time>2014-12-29T10:12:54Z</time>
      </trkpt>
      <trkpt lat="50.3422" lon="4.27977">
        <ele>109.93</ele>
        <time>2014-12-29T10:13:08Z</time>
      </trkpt>
      <trkpt lat="50.34222" lon="4.27926">
        <ele>111.51</ele>
        <time>2014-12-29T10:13:19Z</time>
      </trkpt>
      <trkpt lat="50.34224" lon="4.27922">
        <ele>111.73</ele>
        <time>2014-12-29T10:13:20Z</time>
      </trkpt>
      <trkpt lat="50.34225" lon="4.27918">
        <ele>111.86</ele>
        <time>2014-12-29T10:13:21Z</time>
      </trkpt>
      <trkpt lat="50.34252" lon="4.27864">
        <ele>115</ele>
        <time>2014-12-29T10:13:36Z</time>
      </trkpt>
      <trkpt lat="50.34274" lon="4.2782">
        <ele>118.14</ele>
        <time>2014-12-29T10:13:49Z</time>
      </trkpt>
      <trkpt lat="50.34299" lon="4.27769">
        <ele>121.36</ele>
        <time>2014-12-29T10:14:04Z</time>
      </trkpt>
      <trkpt lat="50.34329" lon="4.27711">
        <ele>124.49</ele>
        <time>2014-12-29T10:14:21Z</time>
      </trkpt>
      <trkpt lat="50.34337" lon="4.27649">
        <ele>127.53</ele>
        <time>2014-12-29T10:14:36Z</time>
      </trkpt>
      <trkpt lat="50.34337" lon="4.27589">
        <ele>130.68</ele>
        <time>2014-12-29T10:14:51Z</time>
      </trkpt>
      <trkpt lat="50.34335" lon="4.27541">
        <ele>133.8</ele>
        <time>2014-12-29T10:15:03Z</time>
      </trkpt>
      <trkpt lat="50.34333" lon="4.27487">
        <ele>136.84</ele>
        <time>2014-12-29T10:15:16Z</time>
      </trkpt>
      <trkpt lat="50.34318" lon="4.27447">
        <ele>140</ele>
        <time>2014-12-29T10:15:27Z</time>
      </trkpt>
      <trkpt lat="50.34279" lon="4.27428">
        <ele>143.1</ele>
        <time>2014-12-29T10:15:42Z</time>
      </trkpt>
      <trkpt lat="50.34241" lon="4.27413">
        <ele>146.13</ele>
        <time>2014-12-29T10:15:55Z</time>
      </trkpt>
      <trkpt lat="50.34199" lon="4.27388">
        <ele>148.59</ele>
        <time>2014-12-29T10:16:08Z</time>
      </trkpt>
      <trkpt lat="50.34141" lon="4.2735">
        <ele>151.06</ele>
        <time>2014-12-29T10:16:26Z</time>
      </trkpt>
      <trkpt lat="50.34124" lon="4.27338">
        <ele>151.37</ele>
        <time>2014-12-29T10:16:33Z</time>
      </trkpt>
      <trkpt lat="50.34123" lon="4.27336">
        <ele>151.42</ele>
        <time>2014-12-29T10:16:34Z</time>
      </trkpt>
      <trkpt lat="50.34122" lon="4.27334">
        <ele>151.49</ele>
        <time>2014-12-29T10:16:35Z</time>
      </trkpt>
      <trkpt lat="50.34111" lon="4.27311">
        <ele>149.65</ele>
        <time>2014-12-29T10:16:44Z</time>
      </trkpt>
      <trkpt lat="50.3411" lon="4.27283">
        <ele>146.49</ele>
        <time>2014-12-29T10:16:51Z</time>
      </trkpt>
      <trkpt lat="50.34108" lon="4.27259">
        <ele>142.78</ele>
        <time>2014-12-29T10:16:56Z</time>
      </trkpt>
      <trkpt lat="50.34105" lon="4.27244">
        <ele>139.64</ele>
        <time>2014-12-29T10:17:00Z</time>
      </trkpt>
      <trkpt lat="50.34105" lon="4.2722">
        <ele>135.5</ele>
        <time>2014-12-29T10:17:04Z</time>
      </trkpt>
      <trkpt lat="50.34104" lon="4.27212">
        <ele>134.41</ele>
        <time>2014-12-29T10:17:05Z</time>
      </trkpt>
      <trkpt lat="50.34102" lon="4.27181">
        <ele>131.13</ele>
        <time>2014-12-29T10:17:08Z</time>
      </trkpt>
      <trkpt lat="50.341" lon="4.27169">
        <ele>130.05</ele>
        <time>2014-12-29T10:17:09Z</time>
      </trkpt>
      <trkpt lat="50.341" lon="4.27154">
        <ele>127.7</ele>
        <time>2014-12-29T10:17:11Z</time>
      </trkpt>
      <trkpt lat="50.34101" lon="4.27147">
        <ele>126.54</ele>
        <time>2014-12-29T10:17:12Z</time>
      </trkpt>
      <trkpt lat="50.34103" lon="4.2714">
        <ele>125.38</ele>
        <time>2014-12-29T10:17:13Z</time>
      </trkpt>
      <trkpt lat="50.34105" lon="4.27133">
        <ele>124.24</ele>
        <time>2014-12-29T10:17:14Z</time>
      </trkpt>
      <trkpt lat="50.34108" lon="4.27125">
        <ele>123.13</ele>
        <time>2014-12-29T10:17:15Z</time>
      </trkpt>
      <trkpt lat="50.34111" lon="4.27113">
        <ele>122.06</ele>
        <time>2014-12-29T10:17:16Z</time>
      </trkpt>
      <trkpt lat="50.34114" lon="4.27104">
        <ele>120.96</ele>
        <time>2014-12-29T10:17:17Z</time>
      </trkpt>
      <trkpt lat="50.34117" lon="4.27093">
        <ele>119.75</ele>
        <time>2014-12-29T10:17:18Z</time>
      </trkpt>
      <trkpt lat="50.34125" lon="4.2707">
        <ele>116.89</ele>
        <time>2014-12-29T10:17:20Z</time>
      </trkpt>
      <trkpt lat="50.34128" lon="4.27063">
        <ele>115.48</ele>
        <time>2014-12-29T10:17:21Z</time>
      </trkpt>
      <trkpt lat="50.34131" lon="4.2705">
        <ele>112.26</ele>
        <time>2014-12-29T10:17:24Z</time>
      </trkpt>
      <trkpt lat="50.34137" lon="4.27034">
        <ele>109.01</ele>
        <time>2014-12-29T10:17:29Z</time>
      </trkpt>
      <trkpt lat="50.34145" lon="4.27005">
        <ele>107.1</ele>
        <time>2014-12-29T10:17:42Z</time>
      </trkpt>
      <trkpt lat="50.34145" lon="4.27004">
        <ele>107.03</ele>
        <time>2014-12-29T10:17:44Z</time>
      </trkpt>
      <trkpt lat="50.34141" lon="4.27009">
        <ele>106.9</ele>
        <time>2014-12-29T10:20:16Z</time>
      </trkpt>
      <trkpt lat="50.34134" lon="4.2703">
        <ele>107.22</ele>
        <time>2014-12-29T10:20:23Z</time>
      </trkpt>
      <trkpt lat="50.34132" lon="4.27032">
        <ele>107.3</ele>
        <time>2014-12-29T10:20:24Z</time>
      </trkpt>
      <trkpt lat="50.34131" lon="4.27034">
        <ele>107.37</ele>
        <time>2014-12-29T10:20:25Z</time>
      </trkpt>
      <trkpt lat="50.34133" lon="4.27036">
        <ele>107.89</ele>
        <time>2014-12-29T10:20:31Z</time>
      </trkpt>
      <trkpt lat="50.34135" lon="4.27025">
        <ele>107.83</ele>
        <time>2014-12-29T10:20:34Z</time>
      </trkpt>
      <trkpt lat="50.34136" lon="4.27021">
        <ele>107.8</ele>
        <time>2014-12-29T10:20:35Z</time>
      </trkpt>
      <trkpt lat="50.34138" lon="4.27017">
        <ele>107.77</ele>
        <time>2014-12-29T10:20:36Z</time>
      </trkpt>
      <trkpt lat="50.34139" lon="4.27012">
        <ele>107.75</ele>
        <time>2014-12-29T10:20:37Z</time>
      </trkpt>
      <trkpt lat="50.34156" lon="4.26967">
        <ele>106.63</ele>
        <time>2014-12-29T10:20:50Z</time>
      </trkpt>
      <trkpt lat="50.34167" lon="4.26937">
        <ele>106.26</ele>
        <time>2014-12-29T10:21:02Z</time>
      </trkpt>
      <trkpt lat="50.3417" lon="4.26929">
        <ele>106.39</ele>
        <time>2014-12-29T10:21:21Z</time>
      </trkpt>
      <trkpt lat="50.34171" lon="4.26926">
        <ele>106.45</ele>
        <time>2014-12-29T10:21:27Z</time>
      </trkpt>
      <trkpt lat="50.34174" lon="4.26918">
        <ele>106.4</ele>
        <time>2014-12-29T10:21:46Z</time>
      </trkpt>
      <trkpt lat="50.3419" lon="4.26873">
        <ele>106.03</ele>
        <time>2014-12-29T10:22:03Z</time>
      </trkpt>
      <trkpt lat="50.34212" lon="4.26833">
        <ele>105.76</ele>
        <time>2014-12-29T10:22:16Z</time>
      </trkpt>
      <trkpt lat="50.34248" lon="4.26786">
        <ele>105.81</ele>
        <time>2014-12-29T10:22:31Z</time>
      </trkpt>
      <trkpt lat="50.3428" lon="4.26752">
        <ele>105.47</ele>
        <time>2014-12-29T10:22:46Z</time>
      </trkpt>
      <trkpt lat="50.34282" lon="4.2675">
        <ele>105.38</ele>
        <time>2014-12-29T10:22:47Z</time>
      </trkpt>
      <trkpt lat="50.34283" lon="4.26748">
        <ele>105.3</ele>
        <time>2014-12-29T10:22:48Z</time>
      </trkpt>
      <trkpt lat="50.34284" lon="4.26747">
        <ele>105.26</ele>
        <time>2014-12-29T10:22:49Z</time>
      </trkpt>
      <trkpt lat="50.34286" lon="4.26747">
        <ele>105.24</ele>
        <time>2014-12-29T10:22:50Z</time>
      </trkpt>
      <trkpt lat="50.34288" lon="4.26748">
        <ele>105.24</ele>
        <time>2014-12-29T10:22:51Z</time>
      </trkpt>
      <trkpt lat="50.3429" lon="4.26747">
        <ele>105.25</ele>
        <time>2014-12-29T10:22:52Z</time>
      </trkpt>
      <trkpt lat="50.34291" lon="4.26745">
        <ele>105.27</ele>
        <time>2014-12-29T10:22:53Z</time>
      </trkpt>
      <trkpt lat="50.34291" lon="4.26742">
        <ele>105.29</ele>
        <time>2014-12-29T10:22:54Z</time>
      </trkpt>
      <trkpt lat="50.34292" lon="4.2674">
        <ele>105.28</ele>
        <time>2014-12-29T10:22:55Z</time>
      </trkpt>
      <trkpt lat="50.34293" lon="4.26738">
        <ele>105.32</ele>
        <time>2014-12-29T10:22:56Z</time>
      </trkpt>
      <trkpt lat="50.34295" lon="4.26739">
        <ele>105.32</ele>
        <time>2014-12-29T10:22:57Z</time>
      </trkpt>
      <trkpt lat="50.34297" lon="4.26739">
        <ele>105.32</ele>
        <time>2014-12-29T10:22:58Z</time>
      </trkpt>
      <trkpt lat="50.34299" lon="4.26736">
        <ele>105.29</ele>
        <time>2014-12-29T10:22:59Z</time>
      </trkpt>
      <trkpt lat="50.343" lon="4.26733">
        <ele>105.32</ele>
        <time>2014-12-29T10:23:00Z</time>
      </trkpt>
      <trkpt lat="50.34301" lon="4.2673">
        <ele>105.35</ele>
        <time>2014-12-29T10:23:01Z</time>
      </trkpt>
      <trkpt lat="50.34303" lon="4.26728">
        <ele>105.36</ele>
        <time>2014-12-29T10:23:02Z</time>
      </trkpt>
      <trkpt lat="50.34305" lon="4.26726">
        <ele>105.35</ele>
        <time>2014-12-29T10:23:03Z</time>
      </trkpt>
      <trkpt lat="50.34307" lon="4.26724">
        <ele>105.35</ele>
        <time>2014-12-29T10:23:04Z</time>
      </trkpt>
      <trkpt lat="50.34338" lon="4.26668">
        <ele>105.67</ele>
        <time>2014-12-29T10:23:20Z</time>
      </trkpt>
      <trkpt lat="50.34367" lon="4.26605">
        <ele>106.09</ele>
        <time>2014-12-29T10:23:34Z</time>
      </trkpt>
      <trkpt lat="50.34381" lon="4.26565">
        <ele>106.21</ele>
        <time>2014-12-29T10:23:41Z</time>
      </trkpt>
      <trkpt lat="50.34404" lon="4.26469">
        <ele>106.85</ele>
        <time>2014-12-29T10:23:57Z</time>
      </trkpt>
      <trkpt lat="50.34411" lon="4.26433">
        <ele>107.17</ele>
        <time>2014-12-29T10:24:05Z</time>
      </trkpt>
      <trkpt lat="50.34409" lon="4.26428">
        <ele>107.16</ele>
        <time>2014-12-29T10:24:06Z</time>
      </trkpt>
      <trkpt lat="50.34406" lon="4.26424">
        <ele>107.1</ele>
        <time>2014-12-29T10:24:07Z</time>
      </trkpt>
      <trkpt lat="50.34402" lon="4.2642">
        <ele>107.05</ele>
        <time>2014-12-29T10:24:08Z</time>
      </trkpt>
      <trkpt lat="50.34399" lon="4.26416">
        <ele>107</ele>
        <time>2014-12-29T10:24:09Z</time>
      </trkpt>
      <trkpt lat="50.34396" lon="4.26412">
        <ele>106.96</ele>
        <time>2014-12-29T10:24:10Z</time>
      </trkpt>
      <trkpt lat="50.34391" lon="4.26408">
        <ele>106.98</ele>
        <time>2014-12-29T10:24:11Z</time>
      </trkpt>
      <trkpt lat="50.34381" lon="4.26399">
        <ele>107.37</ele>
        <time>2014-12-29T10:24:13Z</time>
      </trkpt>
      <trkpt lat="50.34336" lon="4.26368">
        <ele>110.61</ele>
        <time>2014-12-29T10:24:23Z</time>
      </trkpt>
      <trkpt lat="50.34305" lon="4.26348">
        <ele>113.63</ele>
        <time>2014-12-29T10:24:32Z</time>
      </trkpt>
      <trkpt lat="50.34272" lon="4.26333">
        <ele>116.73</ele>
        <time>2014-12-29T10:24:42Z</time>
      </trkpt>
      <trkpt lat="50.34232" lon="4.26317">
        <ele>119.81</ele>
        <time>2014-12-29T10:24:55Z</time>
      </trkpt>
      <trkpt lat="50.34194" lon="4.26317">
        <ele>122.98</ele>
        <time>2014-12-29T10:25:08Z</time>
      </trkpt>
      <trkpt lat="50.34154" lon="4.26361">
        <ele>126.16</ele>
        <time>2014-12-29T10:25:24Z</time>
      </trkpt>
      <trkpt lat="50.34125" lon="4.26397">
        <ele>129.37</ele>
        <time>2014-12-29T10:25:36Z</time>
      </trkpt>
      <trkpt lat="50.34102" lon="4.2645">
        <ele>132.5</ele>
        <time>2014-12-29T10:25:49Z</time>
      </trkpt>
      <trkpt lat="50.34081" lon="4.26504">
        <ele>135.67</ele>
        <time>2014-12-29T10:26:01Z</time>
      </trkpt>
      <trkpt lat="50.34059" lon="4.26553">
        <ele>138.7</ele>
        <time>2014-12-29T10:26:13Z</time>
      </trkpt>
      <trkpt lat="50.3404" lon="4.26591">
        <ele>141.72</ele>
        <time>2014-12-29T10:26:23Z</time>
      </trkpt>
      <trkpt lat="50.3402" lon="4.26635">
        <ele>144.98</ele>
        <time>2014-12-29T10:26:33Z</time>
      </trkpt>
      <trkpt lat="50.34003" lon="4.26668">
        <ele>148.16</ele>
        <time>2014-12-29T10:26:44Z</time>
      </trkpt>
      <trkpt lat="50.33984" lon="4.26706">
        <ele>150.97</ele>
        <time>2014-12-29T10:26:57Z</time>
      </trkpt>
      <trkpt lat="50.33983" lon="4.26707">
        <ele>151.09</ele>
        <time>2014-12-29T10:26:58Z</time>
      </trkpt>
      <trkpt lat="50.33981" lon="4.26706">
        <ele>151.21</ele>
        <time>2014-12-29T10:26:59Z</time>
      </trkpt>
      <trkpt lat="50.3398" lon="4.26705">
        <ele>151.32</ele>
        <time>2014-12-29T10:27:00Z</time>
      </trkpt>
      <trkpt lat="50.33978" lon="4.26703">
        <ele>151.41</ele>
        <time>2014-12-29T10:27:01Z</time>
      </trkpt>
      <trkpt lat="50.33977" lon="4.26701">
        <ele>151.49</ele>
        <time>2014-12-29T10:27:02Z</time>
      </trkpt>
      <trkpt lat="50.33977" lon="4.26699">
        <ele>151.56</ele>
        <time>2014-12-29T10:27:03Z</time>
      </trkpt>
      <trkpt lat="50.33977" lon="4.26696">
        <ele>151.64</ele>
        <time>2014-12-29T10:27:04Z</time>
      </trkpt>
      <trkpt lat="50.33977" lon="4.26694">
        <ele>151.73</ele>
        <time>2014-12-29T10:27:05Z</time>
      </trkpt>
      <trkpt lat="50.33983" lon="4.26644">
        <ele>153.04</ele>
        <time>2014-12-29T10:27:22Z</time>
      </trkpt>
      <trkpt lat="50.34002" lon="4.26564">
        <ele>154.05</ele>
        <time>2014-12-29T10:27:40Z</time>
      </trkpt>
      <trkpt lat="50.34019" lon="4.26448">
        <ele>154.24</ele>
        <time>2014-12-29T10:28:02Z</time>
      </trkpt>
      <trkpt lat="50.34018" lon="4.2642">
        <ele>154.24</ele>
        <time>2014-12-29T10:28:13Z</time>
      </trkpt>
      <trkpt lat="50.34019" lon="4.2642">
        <ele>154.2</ele>
        <time>2014-12-29T10:28:14Z</time>
      </trkpt>
      <trkpt lat="50.34015" lon="4.26423">
        <ele>153.55</ele>
        <time>2014-12-29T10:54:23Z</time>
      </trkpt>
      <trkpt lat="50.34014" lon="4.26421">
        <ele>153.51</ele>
        <time>2014-12-29T10:54:24Z</time>
      </trkpt>
      <trkpt lat="50.34013" lon="4.26418">
        <ele>153.48</ele>
        <time>2014-12-29T10:54:25Z</time>
      </trkpt>
      <trkpt lat="50.33975" lon="4.26354">
        <ele>153.4</ele>
        <time>2014-12-29T10:54:41Z</time>
      </trkpt>
      <trkpt lat="50.33925" lon="4.26233">
        <ele>154.74</ele>
        <time>2014-12-29T10:55:04Z</time>
      </trkpt>
      <trkpt lat="50.33906" lon="4.26167">
        <ele>155.42</ele>
        <time>2014-12-29T10:55:16Z</time>
      </trkpt>
      <trkpt lat="50.33907" lon="4.26161">
        <ele>155.46</ele>
        <time>2014-12-29T10:55:17Z</time>
      </trkpt>
      <trkpt lat="50.33936" lon="4.26039">
        <ele>155.69</ele>
        <time>2014-12-29T10:55:38Z</time>
      </trkpt>
      <trkpt lat="50.33948" lon="4.26003">
        <ele>155.64</ele>
        <time>2014-12-29T10:55:49Z</time>
      </trkpt>
      <trkpt lat="50.33945" lon="4.25991">
        <ele>156.13</ele>
        <time>2014-12-29T10:56:22Z</time>
      </trkpt>
      <trkpt lat="50.33906" lon="4.25946">
        <ele>155.95</ele>
        <time>2014-12-29T10:56:34Z</time>
      </trkpt>
      <trkpt lat="50.33858" lon="4.25901">
        <ele>155.59</ele>
        <time>2014-12-29T10:56:50Z</time>
      </trkpt>
      <trkpt lat="50.33858" lon="4.25901">
        <ele>155.45</ele>
        <time>2014-12-29T10:56:52Z</time>
      </trkpt>
      <trkpt lat="50.33854" lon="4.25908">
        <ele>155.44</ele>
        <time>2014-12-29T10:57:03Z</time>
      </trkpt>
      <trkpt lat="50.33819" lon="4.25979">
        <ele>155.02</ele>
        <time>2014-12-29T10:57:17Z</time>
      </trkpt>
      <trkpt lat="50.33749" lon="4.26129">
        <ele>154.46</ele>
        <time>2014-12-29T10:57:42Z</time>
      </trkpt>
      <trkpt lat="50.33693" lon="4.26247">
        <ele>154.66</ele>
        <time>2014-12-29T10:58:02Z</time>
      </trkpt>
      <trkpt lat="50.33688" lon="4.26266">
        <ele>154.7</ele>
        <time>2014-12-29T10:58:05Z</time>
      </trkpt>
      <trkpt lat="50.33687" lon="4.26273">
        <ele>154.74</ele>
        <time>2014-12-29T10:58:06Z</time>
      </trkpt>
      <trkpt lat="50.33684" lon="4.26385">
        <ele>155.93</ele>
        <time>2014-12-29T10:58:22Z</time>
      </trkpt>
      <trkpt lat="50.33663" lon="4.26478">
        <ele>157.39</ele>
        <time>2014-12-29T10:58:38Z</time>
      </trkpt>
      <trkpt lat="50.33646" lon="4.26517">
        <ele>158.11</ele>
        <time>2014-12-29T10:58:45Z</time>
      </trkpt>
      <trkpt lat="50.33643" lon="4.26528">
        <ele>158.22</ele>
        <time>2014-12-29T10:58:47Z</time>
      </trkpt>
      <trkpt lat="50.33641" lon="4.26546">
        <ele>158.22</ele>
        <time>2014-12-29T10:58:50Z</time>
      </trkpt>
      <trkpt lat="50.33646" lon="4.2657">
        <ele>158.29</ele>
        <time>2014-12-29T10:58:54Z</time>
      </trkpt>
      <trkpt lat="50.33652" lon="4.26615">
        <ele>159.31</ele>
        <time>2014-12-29T10:59:04Z</time>
      </trkpt>
      <trkpt lat="50.33653" lon="4.26616">
        <ele>159.53</ele>
        <time>2014-12-29T10:59:08Z</time>
      </trkpt>
      <trkpt lat="50.33652" lon="4.26629">
        <ele>159.76</ele>
        <time>2014-12-29T10:59:32Z</time>
      </trkpt>
      <trkpt lat="50.33649" lon="4.26676">
        <ele>160.06</ele>
        <time>2014-12-29T10:59:43Z</time>
      </trkpt>
      <trkpt lat="50.33605" lon="4.26717">
        <ele>160.19</ele>
        <time>2014-12-29T10:59:59Z</time>
      </trkpt>
      <trkpt lat="50.33595" lon="4.26735">
        <ele>160.17</ele>
        <time>2014-12-29T11:00:09Z</time>
      </trkpt>
      <trkpt lat="50.3359" lon="4.26744">
        <ele>160.25</ele>
        <time>2014-12-29T11:00:22Z</time>
      </trkpt>
      <trkpt lat="50.33546" lon="4.26796">
        <ele>160.16</ele>
        <time>2014-12-29T11:00:40Z</time>
      </trkpt>
      <trkpt lat="50.33517" lon="4.2682">
        <ele>160.26</ele>
        <time>2014-12-29T11:00:51Z</time>
      </trkpt>
      <trkpt lat="50.33479" lon="4.26865">
        <ele>160.74</ele>
        <time>2014-12-29T11:01:05Z</time>
      </trkpt>
      <trkpt lat="50.33463" lon="4.26876">
        <ele>160.41</ele>
        <time>2014-12-29T11:01:10Z</time>
      </trkpt>
      <trkpt lat="50.33425" lon="4.26898">
        <ele>160.25</ele>
        <time>2014-12-29T11:01:23Z</time>
      </trkpt>
      <trkpt lat="50.33419" lon="4.26899">
        <ele>160.27</ele>
        <time>2014-12-29T11:01:25Z</time>
      </trkpt>
      <trkpt lat="50.33416" lon="4.26897">
        <ele>160.29</ele>
        <time>2014-12-29T11:01:26Z</time>
      </trkpt>
      <trkpt lat="50.33364" lon="4.26888">
        <ele>160.24</ele>
        <time>2014-12-29T11:01:41Z</time>
      </trkpt>
      <trkpt lat="50.33347" lon="4.26929">
        <ele>160.27</ele>
        <time>2014-12-29T11:01:50Z</time>
      </trkpt>
      <trkpt lat="50.33347" lon="4.26932">
        <ele>160.31</ele>
        <time>2014-12-29T11:01:51Z</time>
      </trkpt>
      <trkpt lat="50.33349" lon="4.26935">
        <ele>160.35</ele>
        <time>2014-12-29T11:01:52Z</time>
      </trkpt>
      <trkpt lat="50.3335" lon="4.26938">
        <ele>160.48</ele>
        <time>2014-12-29T11:01:56Z</time>
      </trkpt>
      <trkpt lat="50.33357" lon="4.26949">
        <ele>160.64</ele>
        <time>2014-12-29T11:02:46Z</time>
      </trkpt>
      <trkpt lat="50.33361" lon="4.27009">
        <ele>161.03</ele>
        <time>2014-12-29T11:03:00Z</time>
      </trkpt>
      <trkpt lat="50.33342" lon="4.27131">
        <ele>162.79</ele>
        <time>2014-12-29T11:03:22Z</time>
      </trkpt>
      <trkpt lat="50.33307" lon="4.2729">
        <ele>164.34</ele>
        <time>2014-12-29T11:03:49Z</time>
      </trkpt>
      <trkpt lat="50.33299" lon="4.27411">
        <ele>164.54</ele>
        <time>2014-12-29T11:04:08Z</time>
      </trkpt>
      <trkpt lat="50.33293" lon="4.27559">
        <ele>166.16</ele>
        <time>2014-12-29T11:04:30Z</time>
      </trkpt>
      <trkpt lat="50.33277" lon="4.27686">
        <ele>167.75</ele>
        <time>2014-12-29T11:04:49Z</time>
      </trkpt>
      <trkpt lat="50.33269" lon="4.27795">
        <ele>168.88</ele>
        <time>2014-12-29T11:05:05Z</time>
      </trkpt>
      <trkpt lat="50.33272" lon="4.27892">
        <ele>170.03</ele>
        <time>2014-12-29T11:05:21Z</time>
      </trkpt>
      <trkpt lat="50.33261" lon="4.27923">
        <ele>170.27</ele>
        <time>2014-12-29T11:05:27Z</time>
      </trkpt>
      <trkpt lat="50.33257" lon="4.27927">
        <ele>170.3</ele>
        <time>2014-12-29T11:05:28Z</time>
      </trkpt>
      <trkpt lat="50.33254" lon="4.2793">
        <ele>170.34</ele>
        <time>2014-12-29T11:05:29Z</time>
      </trkpt>
      <trkpt lat="50.33191" lon="4.27992">
        <ele>169.96</ele>
        <time>2014-12-29T11:05:45Z</time>
      </trkpt>
      <trkpt lat="50.33187" lon="4.27993">
        <ele>169.93</ele>
        <time>2014-12-29T11:05:46Z</time>
      </trkpt>
      <trkpt lat="50.33183" lon="4.27994">
        <ele>169.9</ele>
        <time>2014-12-29T11:05:47Z</time>
      </trkpt>
      <trkpt lat="50.33179" lon="4.27995">
        <ele>169.88</ele>
        <time>2014-12-29T11:05:48Z</time>
      </trkpt>
      <trkpt lat="50.33175" lon="4.27993">
        <ele>169.86</ele>
        <time>2014-12-29T11:05:49Z</time>
      </trkpt>
      <trkpt lat="50.33171" lon="4.27991">
        <ele>169.83</ele>
        <time>2014-12-29T11:05:50Z</time>
      </trkpt>
      <trkpt lat="50.33167" lon="4.27989">
        <ele>169.81</ele>
        <time>2014-12-29T11:05:51Z</time>
      </trkpt>
      <trkpt lat="50.33154" lon="4.27985">
        <ele>169.73</ele>
        <time>2014-12-29T11:05:54Z</time>
      </trkpt>
      <trkpt lat="50.3315" lon="4.27985">
        <ele>169.68</ele>
        <time>2014-12-29T11:05:55Z</time>
      </trkpt>
      <trkpt lat="50.33145" lon="4.27985">
        <ele>169.62</ele>
        <time>2014-12-29T11:05:56Z</time>
      </trkpt>
      <trkpt lat="50.33141" lon="4.27987">
        <ele>169.54</ele>
        <time>2014-12-29T11:05:57Z</time>
      </trkpt>
      <trkpt lat="50.33137" lon="4.27988">
        <ele>169.48</ele>
        <time>2014-12-29T11:05:58Z</time>
      </trkpt>
      <trkpt lat="50.33133" lon="4.27991">
        <ele>169.42</ele>
        <time>2014-12-29T11:05:59Z</time>
      </trkpt>
      <trkpt lat="50.33129" lon="4.27994">
        <ele>169.38</ele>
        <time>2014-12-29T11:06:00Z</time>
      </trkpt>
      <trkpt lat="50.33056" lon="4.28073">
        <ele>168.76</ele>
        <time>2014-12-29T11:06:19Z</time>
      </trkpt>
      <trkpt lat="50.33017" lon="4.28167">
        <ele>167.31</ele>
        <time>2014-12-29T11:06:33Z</time>
      </trkpt>
      <trkpt lat="50.3301" lon="4.28187">
        <ele>166.72</ele>
        <time>2014-12-29T11:06:36Z</time>
      </trkpt>
      <trkpt lat="50.3299" lon="4.28234">
        <ele>164.54</ele>
        <time>2014-12-29T11:06:45Z</time>
      </trkpt>
      <trkpt lat="50.32977" lon="4.28271">
        <ele>163.29</ele>
        <time>2014-12-29T11:06:51Z</time>
      </trkpt>
      <trkpt lat="50.32966" lon="4.28294">
        <ele>162.58</ele>
        <time>2014-12-29T11:06:55Z</time>
      </trkpt>
      <trkpt lat="50.32953" lon="4.28331">
        <ele>161.62</ele>
        <time>2014-12-29T11:07:01Z</time>
      </trkpt>
      <trkpt lat="50.32937" lon="4.28353">
        <ele>160.23</ele>
        <time>2014-12-29T11:07:06Z</time>
      </trkpt>
      <trkpt lat="50.3292" lon="4.28366">
        <ele>157.19</ele>
        <time>2014-12-29T11:07:17Z</time>
      </trkpt>
      <trkpt lat="50.32918" lon="4.28366">
        <ele>156.75</ele>
        <time>2014-12-29T11:07:22Z</time>
      </trkpt>
      <trkpt lat="50.32925" lon="4.28389">
        <ele>155.91</ele>
        <time>2014-12-29T11:07:59Z</time>
      </trkpt>
      <trkpt lat="50.32928" lon="4.28402">
        <ele>155.19</ele>
        <time>2014-12-29T11:08:05Z</time>
      </trkpt>
      <trkpt lat="50.32928" lon="4.28413">
        <ele>154.21</ele>
        <time>2014-12-29T11:08:09Z</time>
      </trkpt>
      <trkpt lat="50.32938" lon="4.2844">
        <ele>150.99</ele>
        <time>2014-12-29T11:08:22Z</time>
      </trkpt>
      <trkpt lat="50.32955" lon="4.28469">
        <ele>149.56</ele>
        <time>2014-12-29T11:08:36Z</time>
      </trkpt>
      <trkpt lat="50.32964" lon="4.28476">
        <ele>148.64</ele>
        <time>2014-12-29T11:08:42Z</time>
      </trkpt>
      <trkpt lat="50.32973" lon="4.28485">
        <ele>147.46</ele>
        <time>2014-12-29T11:08:47Z</time>
      </trkpt>
      <trkpt lat="50.32984" lon="4.28502">
        <ele>145.2</ele>
        <time>2014-12-29T11:08:51Z</time>
      </trkpt>
      <trkpt lat="50.32999" lon="4.28522">
        <ele>141.48</ele>
        <time>2014-12-29T11:08:56Z</time>
      </trkpt>
      <trkpt lat="50.33007" lon="4.28534">
        <ele>139.48</ele>
        <time>2014-12-29T11:08:59Z</time>
      </trkpt>
      <trkpt lat="50.33022" lon="4.28575">
        <ele>135.36</ele>
        <time>2014-12-29T11:09:04Z</time>
      </trkpt>
      <trkpt lat="50.33042" lon="4.28606">
        <ele>130.69</ele>
        <time>2014-12-29T11:09:08Z</time>
      </trkpt>
      <trkpt lat="50.33047" lon="4.2861">
        <ele>129.75</ele>
        <time>2014-12-29T11:09:09Z</time>
      </trkpt>
      <trkpt lat="50.33052" lon="4.28613">
        <ele>128.81</ele>
        <time>2014-12-29T11:09:10Z</time>
      </trkpt>
      <trkpt lat="50.33056" lon="4.28616">
        <ele>127.92</ele>
        <time>2014-12-29T11:09:11Z</time>
      </trkpt>
      <trkpt lat="50.33064" lon="4.28618">
        <ele>127.11</ele>
        <time>2014-12-29T11:09:12Z</time>
      </trkpt>
      <trkpt lat="50.33068" lon="4.28622">
        <ele>126.4</ele>
        <time>2014-12-29T11:09:13Z</time>
      </trkpt>
      <trkpt lat="50.33073" lon="4.28624">
        <ele>125.71</ele>
        <time>2014-12-29T11:09:14Z</time>
      </trkpt>
      <trkpt lat="50.33077" lon="4.28625">
        <ele>124.2</ele>
        <time>2014-12-29T11:09:15Z</time>
      </trkpt>
      <trkpt lat="50.3308" lon="4.28626">
        <ele>123.51</ele>
        <time>2014-12-29T11:09:16Z</time>
      </trkpt>
      <trkpt lat="50.33083" lon="4.28626">
        <ele>122.78</ele>
        <time>2014-12-29T11:09:17Z</time>
      </trkpt>
      <trkpt lat="50.33087" lon="4.28628">
        <ele>122.09</ele>
        <time>2014-12-29T11:09:18Z</time>
      </trkpt>
      <trkpt lat="50.33091" lon="4.28629">
        <ele>121.46</ele>
        <time>2014-12-29T11:09:19Z</time>
      </trkpt>
      <trkpt lat="50.33101" lon="4.28638">
        <ele>118.35</ele>
        <time>2014-12-29T11:09:26Z</time>
      </trkpt>
      <trkpt lat="50.33102" lon="4.2864">
        <ele>117.39</ele>
        <time>2014-12-29T11:09:31Z</time>
      </trkpt>
      <trkpt lat="50.33103" lon="4.28663">
        <ele>116.57</ele>
        <time>2014-12-29T11:10:13Z</time>
      </trkpt>
      <trkpt lat="50.33102" lon="4.28666">
        <ele>116.52</ele>
        <time>2014-12-29T11:10:14Z</time>
      </trkpt>
      <trkpt lat="50.33101" lon="4.28669">
        <ele>116.47</ele>
        <time>2014-12-29T11:10:15Z</time>
      </trkpt>
      <trkpt lat="50.33101" lon="4.28673">
        <ele>116.42</ele>
        <time>2014-12-29T11:10:16Z</time>
      </trkpt>
      <trkpt lat="50.331" lon="4.28677">
        <ele>116.38</ele>
        <time>2014-12-29T11:10:17Z</time>
      </trkpt>
      <trkpt lat="50.33099" lon="4.28682">
        <ele>116.32</ele>
        <time>2014-12-29T11:10:18Z</time>
      </trkpt>
      <trkpt lat="50.33097" lon="4.28687">
        <ele>116.27</ele>
        <time>2014-12-29T11:10:19Z</time>
      </trkpt>
      <trkpt lat="50.33076" lon="4.28748">
        <ele>116.58</ele>
        <time>2014-12-29T11:10:33Z</time>
      </trkpt>
      <trkpt lat="50.33061" lon="4.28805">
        <ele>118.89</ele>
        <time>2014-12-29T11:10:46Z</time>
      </trkpt>
      <trkpt lat="50.33051" lon="4.28851">
        <ele>117.67</ele>
        <time>2014-12-29T11:10:53Z</time>
      </trkpt>
      <trkpt lat="50.33023" lon="4.28924">
        <ele>117.14</ele>
        <time>2014-12-29T11:11:06Z</time>
      </trkpt>
      <trkpt lat="50.33008" lon="4.28986">
        <ele>118.94</ele>
        <time>2014-12-29T11:11:18Z</time>
      </trkpt>
      <trkpt lat="50.32988" lon="4.29085">
        <ele>119.72</ele>
        <time>2014-12-29T11:11:32Z</time>
      </trkpt>
      <trkpt lat="50.32959" lon="4.29167">
        <ele>120.72</ele>
        <time>2014-12-29T11:11:44Z</time>
      </trkpt>
      <trkpt lat="50.32947" lon="4.29243">
        <ele>122.41</ele>
        <time>2014-12-29T11:11:55Z</time>
      </trkpt>
      <trkpt lat="50.32953" lon="4.29294">
        <ele>122.23</ele>
        <time>2014-12-29T11:12:03Z</time>
      </trkpt>
      <trkpt lat="50.32957" lon="4.293">
        <ele>121.93</ele>
        <time>2014-12-29T11:12:04Z</time>
      </trkpt>
      <trkpt lat="50.3296" lon="4.29317">
        <ele>121.66</ele>
        <time>2014-12-29T11:12:05Z</time>
      </trkpt>
      <trkpt lat="50.32966" lon="4.29322">
        <ele>121.36</ele>
        <time>2014-12-29T11:12:06Z</time>
      </trkpt>
      <trkpt lat="50.32972" lon="4.29325">
        <ele>120.96</ele>
        <time>2014-12-29T11:12:07Z</time>
      </trkpt>
      <trkpt lat="50.33011" lon="4.29344">
        <ele>118.48</ele>
        <time>2014-12-29T11:12:15Z</time>
      </trkpt>
      <trkpt lat="50.3307" lon="4.29374">
        <ele>118.19</ele>
        <time>2014-12-29T11:12:28Z</time>
      </trkpt>
      <trkpt lat="50.33098" lon="4.29367">
        <ele>118.65</ele>
        <time>2014-12-29T11:12:36Z</time>
      </trkpt>
      <trkpt lat="50.33087" lon="4.29351">
        <ele>119.66</ele>
        <time>2014-12-29T11:12:51Z</time>
      </trkpt>
      <trkpt lat="50.33087" lon="4.29347">
        <ele>119.75</ele>
        <time>2014-12-29T11:12:54Z</time>
      </trkpt>
      <trkpt lat="50.33088" lon="4.29342">
        <ele>119.81</ele>
        <time>2014-12-29T11:13:02Z</time>
      </trkpt>
      <trkpt lat="50.33089" lon="4.29333">
        <ele>120.02</ele>
        <time>2014-12-29T11:13:36Z</time>
      </trkpt>
      <trkpt lat="50.3309" lon="4.29312">
        <ele>120.25</ele>
        <time>2014-12-29T11:13:50Z</time>
      </trkpt>
      <trkpt lat="50.33097" lon="4.2927">
        <ele>124.04</ele>
        <time>2014-12-29T11:14:35Z</time>
      </trkpt>
      <trkpt lat="50.33088" lon="4.29263">
        <ele>127.29</ele>
        <time>2014-12-29T11:14:45Z</time>
      </trkpt>
      <trkpt lat="50.33078" lon="4.29257">
        <ele>130.34</ele>
        <time>2014-12-29T11:14:55Z</time>
      </trkpt>
      <trkpt lat="50.33067" lon="4.2925">
        <ele>133.36</ele>
        <time>2014-12-29T11:15:06Z</time>
      </trkpt>
      <trkpt lat="50.33058" lon="4.2924">
        <ele>136.47</ele>
        <time>2014-12-29T11:15:17Z</time>
      </trkpt>
      <trkpt lat="50.33063" lon="4.29223">
        <ele>139.54</ele>
        <time>2014-12-29T11:15:30Z</time>
      </trkpt>
      <trkpt lat="50.33071" lon="4.29198">
        <ele>142.58</ele>
        <time>2014-12-29T11:15:45Z</time>
      </trkpt>
      <trkpt lat="50.33088" lon="4.29185">
        <ele>145.73</ele>
        <time>2014-12-29T11:16:01Z</time>
      </trkpt>
      <trkpt lat="50.33099" lon="4.29185">
        <ele>148.24</ele>
        <time>2014-12-29T11:16:11Z</time>
      </trkpt>
      <trkpt lat="50.33104" lon="4.29181">
        <ele>148.66</ele>
        <time>2014-12-29T11:16:14Z</time>
      </trkpt>
      <trkpt lat="50.33121" lon="4.29159">
        <ele>148.89</ele>
        <time>2014-12-29T11:16:35Z</time>
      </trkpt>
      <trkpt lat="50.33137" lon="4.29149">
        <ele>148.86</ele>
        <time>2014-12-29T11:17:22Z</time>
      </trkpt>
      <trkpt lat="50.33153" lon="4.29118">
        <ele>148.82</ele>
        <time>2014-12-29T11:17:33Z</time>
      </trkpt>
      <trkpt lat="50.33161" lon="4.29105">
        <ele>148.94</ele>
        <time>2014-12-29T11:17:38Z</time>
      </trkpt>
      <trkpt lat="50.33169" lon="4.29098">
        <ele>149.07</ele>
        <time>2014-12-29T11:17:42Z</time>
      </trkpt>
      <trkpt lat="50.33185" lon="4.29094">
        <ele>150.32</ele>
        <time>2014-12-29T11:17:50Z</time>
      </trkpt>
      <trkpt lat="50.33216" lon="4.2911">
        <ele>152.91</ele>
        <time>2014-12-29T11:18:04Z</time>
      </trkpt>
      <trkpt lat="50.33242" lon="4.29145">
        <ele>155.41</ele>
        <time>2014-12-29T11:18:17Z</time>
      </trkpt>
      <trkpt lat="50.33274" lon="4.2919">
        <ele>157.49</ele>
        <time>2014-12-29T11:18:30Z</time>
      </trkpt>
      <trkpt lat="50.33298" lon="4.29229">
        <ele>158.84</ele>
        <time>2014-12-29T11:18:43Z</time>
      </trkpt>
      <trkpt lat="50.33323" lon="4.29273">
        <ele>159.62</ele>
        <time>2014-12-29T11:18:57Z</time>
      </trkpt>
      <trkpt lat="50.33342" lon="4.29312">
        <ele>159.58</ele>
        <time>2014-12-29T11:19:08Z</time>
      </trkpt>
      <trkpt lat="50.33368" lon="4.29359">
        <ele>159.96</ele>
        <time>2014-12-29T11:19:20Z</time>
      </trkpt>
      <trkpt lat="50.33377" lon="4.29416">
        <ele>161.58</ele>
        <time>2014-12-29T11:19:33Z</time>
      </trkpt>
      <trkpt lat="50.33379" lon="4.29491">
        <ele>163.83</ele>
        <time>2014-12-29T11:19:47Z</time>
      </trkpt>
      <trkpt lat="50.33382" lon="4.29567">
        <ele>166.45</ele>
        <time>2014-12-29T11:20:01Z</time>
      </trkpt>
      <trkpt lat="50.334" lon="4.29642">
        <ele>168.72</ele>
        <time>2014-12-29T11:20:15Z</time>
      </trkpt>
      <trkpt lat="50.33415" lon="4.29725">
        <ele>168.89</ele>
        <time>2014-12-29T11:20:29Z</time>
      </trkpt>
      <trkpt lat="50.33422" lon="4.29751">
        <ele>167.79</ele>
        <time>2014-12-29T11:20:41Z</time>
      </trkpt>
      <trkpt lat="50.33424" lon="4.2976">
        <ele>167.41</ele>
        <time>2014-12-29T11:21:37Z</time>
      </trkpt>
      <trkpt lat="50.33426" lon="4.2976">
        <ele>167.44</ele>
        <time>2014-12-29T11:21:38Z</time>
      </trkpt>
      <trkpt lat="50.33428" lon="4.29759">
        <ele>167.48</ele>
        <time>2014-12-29T11:21:39Z</time>
      </trkpt>
      <trkpt lat="50.3343" lon="4.29757">
        <ele>167.5</ele>
        <time>2014-12-29T11:21:40Z</time>
      </trkpt>
      <trkpt lat="50.33457" lon="4.29713">
        <ele>164.94</ele>
        <time>2014-12-29T11:21:51Z</time>
      </trkpt>
      <trkpt lat="50.3346" lon="4.29707">
        <ele>164.57</ele>
        <time>2014-12-29T11:21:52Z</time>
      </trkpt>
      <trkpt lat="50.33462" lon="4.29701">
        <ele>164.23</ele>
        <time>2014-12-29T11:21:53Z</time>
      </trkpt>
      <trkpt lat="50.33474" lon="4.2966">
        <ele>161.73</ele>
        <time>2014-12-29T11:21:59Z</time>
      </trkpt>
      <trkpt lat="50.33505" lon="4.29589">
        <ele>161.06</ele>
        <time>2014-12-29T11:22:13Z</time>
      </trkpt>
      <trkpt lat="50.33545" lon="4.29553">
        <ele>164.22</ele>
        <time>2014-12-29T11:22:25Z</time>
      </trkpt>
      <trkpt lat="50.33594" lon="4.29531">
        <ele>167.45</ele>
        <time>2014-12-29T11:22:39Z</time>
      </trkpt>
      <trkpt lat="50.33603" lon="4.29527">
        <ele>168.55</ele>
        <time>2014-12-29T11:22:44Z</time>
      </trkpt>
      <trkpt lat="50.33604" lon="4.29524">
        <ele>168.83</ele>
        <time>2014-12-29T11:22:45Z</time>
      </trkpt>
      <trkpt lat="50.33618" lon="4.2947">
        <ele>169.1</ele>
        <time>2014-12-29T11:22:58Z</time>
      </trkpt>
      <trkpt lat="50.33637" lon="4.29413">
        <ele>168.18</ele>
        <time>2014-12-29T11:23:08Z</time>
      </trkpt>
      <trkpt lat="50.33639" lon="4.29406">
        <ele>168.04</ele>
        <time>2014-12-29T11:23:09Z</time>
      </trkpt>
      <trkpt lat="50.33641" lon="4.294">
        <ele>167.74</ele>
        <time>2014-12-29T11:23:10Z</time>
      </trkpt>
      <trkpt lat="50.33676" lon="4.29297">
        <ele>165.94</ele>
        <time>2014-12-29T11:23:26Z</time>
      </trkpt>
      <trkpt lat="50.33707" lon="4.29282">
        <ele>164.74</ele>
        <time>2014-12-29T11:23:38Z</time>
      </trkpt>
      <trkpt lat="50.33755" lon="4.29309">
        <ele>163.49</ele>
        <time>2014-12-29T11:23:53Z</time>
      </trkpt>
      <trkpt lat="50.33784" lon="4.29278">
        <ele>163.38</ele>
        <time>2014-12-29T11:24:04Z</time>
      </trkpt>
      <trkpt lat="50.33821" lon="4.29221">
        <ele>164.65</ele>
        <time>2014-12-29T11:24:20Z</time>
      </trkpt>
      <trkpt lat="50.33842" lon="4.29172">
        <ele>164.67</ele>
        <time>2014-12-29T11:24:32Z</time>
      </trkpt>
      <trkpt lat="50.33844" lon="4.29171">
        <ele>164.64</ele>
        <time>2014-12-29T11:24:33Z</time>
      </trkpt>
      <trkpt lat="50.33847" lon="4.29173">
        <ele>164.61</ele>
        <time>2014-12-29T11:24:34Z</time>
      </trkpt>
      <trkpt lat="50.33849" lon="4.29174">
        <ele>164.56</ele>
        <time>2014-12-29T11:24:35Z</time>
      </trkpt>
      <trkpt lat="50.33851" lon="4.29174">
        <ele>164.51</ele>
        <time>2014-12-29T11:24:36Z</time>
      </trkpt>
      <trkpt lat="50.33852" lon="4.29173">
        <ele>164.48</ele>
        <time>2014-12-29T11:24:37Z</time>
      </trkpt>
      <trkpt lat="50.33854" lon="4.29171">
        <ele>164.44</ele>
        <time>2014-12-29T11:24:38Z</time>
      </trkpt>
      <trkpt lat="50.33855" lon="4.29168">
        <ele>164.39</ele>
        <time>2014-12-29T11:24:39Z</time>
      </trkpt>
      <trkpt lat="50.33856" lon="4.29163">
        <ele>164.36</ele>
        <time>2014-12-29T11:24:40Z</time>
      </trkpt>
      <trkpt lat="50.33857" lon="4.29159">
        <ele>164.32</ele>
        <time>2014-12-29T11:24:41Z</time>
      </trkpt>
      <trkpt lat="50.33858" lon="4.29153">
        <ele>164.27</ele>
        <time>2014-12-29T11:24:42Z</time>
      </trkpt>
      <trkpt lat="50.3386" lon="4.29148">
        <ele>164.2</ele>
        <time>2014-12-29T11:24:43Z</time>
      </trkpt>
      <trkpt lat="50.33861" lon="4.29141">
        <ele>164.1</ele>
        <time>2014-12-29T11:24:44Z</time>
      </trkpt>
      <trkpt lat="50.33863" lon="4.29136">
        <ele>164.01</ele>
        <time>2014-12-29T11:24:45Z</time>
      </trkpt>
      <trkpt lat="50.33875" lon="4.2909">
        <ele>162.34</ele>
        <time>2014-12-29T11:24:56Z</time>
      </trkpt>
      <trkpt lat="50.33877" lon="4.29087">
        <ele>161.85</ele>
        <time>2014-12-29T11:25:04Z</time>
      </trkpt>
      <trkpt lat="50.33878" lon="4.29077">
        <ele>161.82</ele>
        <time>2014-12-29T11:25:08Z</time>
      </trkpt>
      <trkpt lat="50.33886" lon="4.29012">
        <ele>160.67</ele>
        <time>2014-12-29T11:25:18Z</time>
      </trkpt>
      <trkpt lat="50.33898" lon="4.28905">
        <ele>159.04</ele>
        <time>2014-12-29T11:25:31Z</time>
      </trkpt>
      <trkpt lat="50.33898" lon="4.28895">
        <ele>158.76</ele>
        <time>2014-12-29T11:25:32Z</time>
      </trkpt>
      <trkpt lat="50.33899" lon="4.28885">
        <ele>158.39</ele>
        <time>2014-12-29T11:25:33Z</time>
      </trkpt>
      <trkpt lat="50.33899" lon="4.28875">
        <ele>158.03</ele>
        <time>2014-12-29T11:25:34Z</time>
      </trkpt>
      <trkpt lat="50.339" lon="4.28856">
        <ele>157.36</ele>
        <time>2014-12-29T11:25:36Z</time>
      </trkpt>
      <trkpt lat="50.33913" lon="4.2879">
        <ele>154.93</ele>
        <time>2014-12-29T11:25:43Z</time>
      </trkpt>
      <trkpt lat="50.33917" lon="4.28779">
        <ele>154.27</ele>
        <time>2014-12-29T11:25:45Z</time>
      </trkpt>
      <trkpt lat="50.33919" lon="4.28773">
        <ele>153.98</ele>
        <time>2014-12-29T11:25:46Z</time>
      </trkpt>
      <trkpt lat="50.33922" lon="4.28759">
        <ele>153.41</ele>
        <time>2014-12-29T11:25:48Z</time>
      </trkpt>
      <trkpt lat="50.33925" lon="4.28753">
        <ele>153.17</ele>
        <time>2014-12-29T11:25:49Z</time>
      </trkpt>
      <trkpt lat="50.33938" lon="4.28716">
        <ele>152.37</ele>
        <time>2014-12-29T11:25:57Z</time>
      </trkpt>
      <trkpt lat="50.33941" lon="4.28715">
        <ele>152.37</ele>
        <time>2014-12-29T11:25:58Z</time>
      </trkpt>
      <trkpt lat="50.33943" lon="4.28713">
        <ele>152.38</ele>
        <time>2014-12-29T11:25:59Z</time>
      </trkpt>
      <trkpt lat="50.33946" lon="4.28713">
        <ele>152.4</ele>
        <time>2014-12-29T11:26:00Z</time>
      </trkpt>
      <trkpt lat="50.33948" lon="4.28712">
        <ele>152.42</ele>
        <time>2014-12-29T11:26:01Z</time>
      </trkpt>
      <trkpt lat="50.33951" lon="4.2871">
        <ele>152.45</ele>
        <time>2014-12-29T11:26:02Z</time>
      </trkpt>
      <trkpt lat="50.33952" lon="4.28707">
        <ele>152.48</ele>
        <time>2014-12-29T11:26:03Z</time>
      </trkpt>
      <trkpt lat="50.33954" lon="4.28704">
        <ele>152.5</ele>
        <time>2014-12-29T11:26:04Z</time>
      </trkpt>
      <trkpt lat="50.33954" lon="4.28701">
        <ele>152.51</ele>
        <time>2014-12-29T11:26:05Z</time>
      </trkpt>
      <trkpt lat="50.33955" lon="4.28697">
        <ele>152.52</ele>
        <time>2014-12-29T11:26:06Z</time>
      </trkpt>
      <trkpt lat="50.33955" lon="4.28693">
        <ele>152.53</ele>
        <time>2014-12-29T11:26:07Z</time>
      </trkpt>
      <trkpt lat="50.33954" lon="4.28687">
        <ele>152.5</ele>
        <time>2014-12-29T11:26:09Z</time>
      </trkpt>
      <trkpt lat="50.33953" lon="4.28685">
        <ele>152.51</ele>
        <time>2014-12-29T11:26:10Z</time>
      </trkpt>
      <trkpt lat="50.33949" lon="4.28684">
        <ele>152.71</ele>
        <time>2014-12-29T11:26:17Z</time>
      </trkpt>
    </trkseg>
  </trk>
</gpx>